<?xml version="1.0" encoding="UTF-8"?>
<gpx xmlns="http://www.topografix.com/GPX/1/1" xmlns:xsi="http://www.w3.org/2001/XMLSchema-instance" version="1.1" xsi:schemaLocation="http://www.topografix.com/GPX/1/1 http://www.topografix.com/GPX/1/1/gpx.xsd">
  <metadata>
    <name>2XU Triathlon Series - St. Kilda</name>
  </metadata>
  <trk>
    <name>2XU Triathlon Series - St. Kilda</name>
    <trkseg>
      <trkpt lat="-37.859993" lon="144.971546">
        <ele>10.855061</ele>
        <time>2024-03-24T08:30:00.000Z</time>
      </trkpt>
      <trkpt lat="-37.859717" lon="144.971276">
        <ele>10.85506</ele>
        <time>2024-03-24T08:30:04.000Z</time>
      </trkpt>
      <trkpt lat="-37.859428" lon="144.970902">
        <ele>10.85505</ele>
        <time>2024-03-24T08:30:09.000Z</time>
      </trkpt>
      <trkpt lat="-37.858998" lon="144.970133">
        <ele>9.994849</ele>
        <time>2024-03-24T08:30:17.000Z</time>
      </trkpt>
      <trkpt lat="-37.858863" lon="144.969875">
        <ele>9.626295</ele>
        <time>2024-03-24T08:30:20.000Z</time>
      </trkpt>
      <trkpt lat="-37.858744" lon="144.969678">
        <ele>9.337781</ele>
        <time>2024-03-24T08:30:22.000Z</time>
      </trkpt>
      <trkpt lat="-37.858666" lon="144.969559">
        <ele>9.174047</ele>
        <time>2024-03-24T08:30:23.000Z</time>
      </trkpt>
      <trkpt lat="-37.858642" lon="144.969484">
        <ele>9.081472</ele>
        <time>2024-03-24T08:30:24.000Z</time>
      </trkpt>
      <trkpt lat="-37.856821" lon="144.966297">
        <ele>4.474031</ele>
        <time>2024-03-24T08:30:59.000Z</time>
      </trkpt>
      <trkpt lat="-37.85682" lon="144.966289">
        <ele>4.466954</ele>
        <time>2024-03-24T08:30:59.000Z</time>
      </trkpt>
      <trkpt lat="-37.856809" lon="144.966266">
        <ele>4.445681</ele>
        <time>2024-03-24T08:30:59.000Z</time>
      </trkpt>
      <trkpt lat="-37.856275" lon="144.965303">
        <ele>3.480155</ele>
        <time>2024-03-24T08:31:09.000Z</time>
      </trkpt>
      <trkpt lat="-37.855808" lon="144.964496">
        <ele>3.422507</ele>
        <time>2024-03-24T08:31:18.000Z</time>
      </trkpt>
      <trkpt lat="-37.855247" lon="144.963492">
        <ele>3.5024</ele>
        <time>2024-03-24T08:31:29.000Z</time>
      </trkpt>
      <trkpt lat="-37.855236" lon="144.963485">
        <ele>3.50312</ele>
        <time>2024-03-24T08:31:29.000Z</time>
      </trkpt>
      <trkpt lat="-37.855222" lon="144.963484">
        <ele>3.503583</ele>
        <time>2024-03-24T08:31:29.000Z</time>
      </trkpt>
      <trkpt lat="-37.854827" lon="144.962776">
        <ele>3.785148</ele>
        <time>2024-03-24T08:31:37.000Z</time>
      </trkpt>
      <trkpt lat="-37.854439" lon="144.962121">
        <ele>4.107164</ele>
        <time>2024-03-24T08:31:44.000Z</time>
      </trkpt>
      <trkpt lat="-37.854028" lon="144.96132">
        <ele>4.445231</ele>
        <time>2024-03-24T08:31:52.000Z</time>
      </trkpt>
      <trkpt lat="-37.853561" lon="144.960361">
        <ele>4.70484</ele>
        <time>2024-03-24T08:32:02.000Z</time>
      </trkpt>
      <trkpt lat="-37.853546" lon="144.960338">
        <ele>4.711801</ele>
        <time>2024-03-24T08:32:02.000Z</time>
      </trkpt>
      <trkpt lat="-37.853554" lon="144.960329">
        <ele>4.713248</ele>
        <time>2024-03-24T08:32:02.000Z</time>
      </trkpt>
      <trkpt lat="-37.853237" lon="144.959674">
        <ele>4.892951</ele>
        <time>2024-03-24T08:32:09.000Z</time>
      </trkpt>
      <trkpt lat="-37.852985" lon="144.959157">
        <ele>4.879954</ele>
        <time>2024-03-24T08:32:14.000Z</time>
      </trkpt>
      <trkpt lat="-37.852971" lon="144.959142">
        <ele>4.879113</ele>
        <time>2024-03-24T08:32:14.000Z</time>
      </trkpt>
      <trkpt lat="-37.852961" lon="144.959109">
        <ele>4.873389</ele>
        <time>2024-03-24T08:32:14.000Z</time>
      </trkpt>
      <trkpt lat="-37.852796" lon="144.958743">
        <ele>4.833382</ele>
        <time>2024-03-24T08:32:18.000Z</time>
      </trkpt>
      <trkpt lat="-37.852599" lon="144.958367">
        <ele>4.78902</ele>
        <time>2024-03-24T08:32:22.000Z</time>
      </trkpt>
      <trkpt lat="-37.852589" lon="144.958328">
        <ele>4.784757</ele>
        <time>2024-03-24T08:32:22.000Z</time>
      </trkpt>
      <trkpt lat="-37.852562" lon="144.958283">
        <ele>4.780274</ele>
        <time>2024-03-24T08:32:22.000Z</time>
      </trkpt>
      <trkpt lat="-37.852423" lon="144.958004">
        <ele>4.747974</ele>
        <time>2024-03-24T08:32:25.000Z</time>
      </trkpt>
      <trkpt lat="-37.851899" lon="144.956941">
        <ele>4.745582</ele>
        <time>2024-03-24T08:32:36.000Z</time>
      </trkpt>
      <trkpt lat="-37.851914" lon="144.956934">
        <ele>4.745716</ele>
        <time>2024-03-24T08:32:36.000Z</time>
      </trkpt>
      <trkpt lat="-37.851884" lon="144.956892">
        <ele>4.748783</ele>
        <time>2024-03-24T08:32:36.000Z</time>
      </trkpt>
      <trkpt lat="-37.851615" lon="144.956355">
        <ele>4.783975</ele>
        <time>2024-03-24T08:32:42.000Z</time>
      </trkpt>
      <trkpt lat="-37.851264" lon="144.955621">
        <ele>4.839555</ele>
        <time>2024-03-24T08:32:50.000Z</time>
      </trkpt>
      <trkpt lat="-37.850821" lon="144.954695">
        <ele>5.03181</ele>
        <time>2024-03-24T08:33:00.000Z</time>
      </trkpt>
      <trkpt lat="-37.850546" lon="144.954153">
        <ele>5.144735</ele>
        <time>2024-03-24T08:33:06.000Z</time>
      </trkpt>
      <trkpt lat="-37.850541" lon="144.954123">
        <ele>5.148076</ele>
        <time>2024-03-24T08:33:06.000Z</time>
      </trkpt>
      <trkpt lat="-37.850518" lon="144.954108">
        <ele>5.15341</ele>
        <time>2024-03-24T08:33:06.000Z</time>
      </trkpt>
      <trkpt lat="-37.849804" lon="144.952623">
        <ele>4.831088</ele>
        <time>2024-03-24T08:33:21.000Z</time>
      </trkpt>
      <trkpt lat="-37.849651" lon="144.952322">
        <ele>4.722249</ele>
        <time>2024-03-24T08:33:24.000Z</time>
      </trkpt>
      <trkpt lat="-37.849442" lon="144.951855">
        <ele>4.557384</ele>
        <time>2024-03-24T08:33:29.000Z</time>
      </trkpt>
      <trkpt lat="-37.84928" lon="144.95154">
        <ele>4.585662</ele>
        <time>2024-03-24T08:33:32.000Z</time>
      </trkpt>
      <trkpt lat="-37.849213" lon="144.951414">
        <ele>4.612245</ele>
        <time>2024-03-24T08:33:33.000Z</time>
      </trkpt>
      <trkpt lat="-37.849147" lon="144.951278">
        <ele>4.640648</ele>
        <time>2024-03-24T08:33:34.000Z</time>
      </trkpt>
      <trkpt lat="-37.84904" lon="144.951332">
        <ele>4.665743</ele>
        <time>2024-03-24T08:33:35.000Z</time>
      </trkpt>
      <trkpt lat="-37.849135" lon="144.951505">
        <ele>4.704892</ele>
        <time>2024-03-24T08:33:37.000Z</time>
      </trkpt>
      <trkpt lat="-37.849196" lon="144.951643">
        <ele>4.730669</ele>
        <time>2024-03-24T08:33:38.000Z</time>
      </trkpt>
      <trkpt lat="-37.849812" lon="144.95291">
        <ele>5.031488</ele>
        <time>2024-03-24T08:33:51.000Z</time>
      </trkpt>
      <trkpt lat="-37.849811" lon="144.952923">
        <ele>5.034053</ele>
        <time>2024-03-24T08:33:51.000Z</time>
      </trkpt>
      <trkpt lat="-37.849813" lon="144.952937">
        <ele>5.03662</ele>
        <time>2024-03-24T08:33:51.000Z</time>
      </trkpt>
      <trkpt lat="-37.850716" lon="144.954773">
        <ele>5.586306</ele>
        <time>2024-03-24T08:34:10.000Z</time>
      </trkpt>
      <trkpt lat="-37.851118" lon="144.9556">
        <ele>5.693855</ele>
        <time>2024-03-24T08:34:19.000Z</time>
      </trkpt>
      <trkpt lat="-37.851525" lon="144.95643">
        <ele>5.799323</ele>
        <time>2024-03-24T08:34:28.000Z</time>
      </trkpt>
      <trkpt lat="-37.852334" lon="144.958084">
        <ele>6.05559</ele>
        <time>2024-03-24T08:34:45.000Z</time>
      </trkpt>
      <trkpt lat="-37.852658" lon="144.958784">
        <ele>6.143303</ele>
        <time>2024-03-24T08:34:52.000Z</time>
      </trkpt>
      <trkpt lat="-37.853143" lon="144.95975">
        <ele>6.233406</ele>
        <time>2024-03-24T08:35:02.000Z</time>
      </trkpt>
      <trkpt lat="-37.853802" lon="144.961116">
        <ele>6.118454</ele>
        <time>2024-03-24T08:35:16.000Z</time>
      </trkpt>
      <trkpt lat="-37.853807" lon="144.961146">
        <ele>6.112128</ele>
        <time>2024-03-24T08:35:16.000Z</time>
      </trkpt>
      <trkpt lat="-37.853814" lon="144.96115">
        <ele>6.11098</ele>
        <time>2024-03-24T08:35:16.000Z</time>
      </trkpt>
      <trkpt lat="-37.85394" lon="144.961396">
        <ele>6.05067</ele>
        <time>2024-03-24T08:35:19.000Z</time>
      </trkpt>
      <trkpt lat="-37.854291" lon="144.962113">
        <ele>5.876836</ele>
        <time>2024-03-24T08:35:26.000Z</time>
      </trkpt>
      <trkpt lat="-37.854688" lon="144.962902">
        <ele>5.84262</ele>
        <time>2024-03-24T08:35:34.000Z</time>
      </trkpt>
      <trkpt lat="-37.855567" lon="144.964682">
        <ele>6.141745</ele>
        <time>2024-03-24T08:35:52.000Z</time>
      </trkpt>
      <trkpt lat="-37.85596" lon="144.965422">
        <ele>6.586136</ele>
        <time>2024-03-24T08:36:00.000Z</time>
      </trkpt>
      <trkpt lat="-37.85653" lon="144.966498">
        <ele>7.468455</ele>
        <time>2024-03-24T08:36:11.000Z</time>
      </trkpt>
      <trkpt lat="-37.857831" lon="144.969014">
        <ele>10.395723</ele>
        <time>2024-03-24T08:36:37.000Z</time>
      </trkpt>
      <trkpt lat="-37.857859" lon="144.969078">
        <ele>10.44896</ele>
        <time>2024-03-24T08:36:38.000Z</time>
      </trkpt>
      <trkpt lat="-37.857931" lon="144.969208">
        <ele>10.573359</ele>
        <time>2024-03-24T08:36:39.000Z</time>
      </trkpt>
      <trkpt lat="-37.858059" lon="144.969462">
        <ele>10.826066</ele>
        <time>2024-03-24T08:36:42.000Z</time>
      </trkpt>
      <trkpt lat="-37.858196" lon="144.969714">
        <ele>11.065212</ele>
        <time>2024-03-24T08:36:45.000Z</time>
      </trkpt>
      <trkpt lat="-37.858243" lon="144.969833">
        <ele>11.168097</ele>
        <time>2024-03-24T08:36:46.000Z</time>
      </trkpt>
      <trkpt lat="-37.858272" lon="144.969858">
        <ele>11.198462</ele>
        <time>2024-03-24T08:36:46.000Z</time>
      </trkpt>
      <trkpt lat="-37.858267" lon="144.969868">
        <ele>11.207986</ele>
        <time>2024-03-24T08:36:46.000Z</time>
      </trkpt>
      <trkpt lat="-37.858337" lon="144.969978">
        <ele>11.308277</ele>
        <time>2024-03-24T08:36:47.000Z</time>
      </trkpt>
      <trkpt lat="-37.858567" lon="144.970301">
        <ele>11.407742</ele>
        <time>2024-03-24T08:36:51.000Z</time>
      </trkpt>
      <trkpt lat="-37.858611" lon="144.970339">
        <ele>11.420475</ele>
        <time>2024-03-24T08:36:52.000Z</time>
      </trkpt>
      <trkpt lat="-37.858615" lon="144.970338">
        <ele>11.422079</ele>
        <time>2024-03-24T08:36:52.000Z</time>
      </trkpt>
      <trkpt lat="-37.858621" lon="144.970347">
        <ele>11.42558</ele>
        <time>2024-03-24T08:36:52.000Z</time>
      </trkpt>
      <trkpt lat="-37.859668" lon="144.971378">
        <ele>11.801902</ele>
        <time>2024-03-24T08:37:07.000Z</time>
      </trkpt>
      <trkpt lat="-37.860306" lon="144.971986">
        <ele>11.996312</ele>
        <time>2024-03-24T08:37:16.000Z</time>
      </trkpt>
      <trkpt lat="-37.861027" lon="144.972615">
        <ele>12.208994</ele>
        <time>2024-03-24T08:37:26.000Z</time>
      </trkpt>
      <trkpt lat="-37.861333" lon="144.972746">
        <ele>12.263626</ele>
        <time>2024-03-24T08:37:30.000Z</time>
      </trkpt>
      <trkpt lat="-37.861442" lon="144.972778">
        <ele>12.273238</ele>
        <time>2024-03-24T08:37:31.000Z</time>
      </trkpt>
      <trkpt lat="-37.861556" lon="144.972799">
        <ele>12.283032</ele>
        <time>2024-03-24T08:37:32.000Z</time>
      </trkpt>
      <trkpt lat="-37.861974" lon="144.97284">
        <ele>12.316284</ele>
        <time>2024-03-24T08:37:37.000Z</time>
      </trkpt>
      <trkpt lat="-37.862271" lon="144.97276">
        <ele>12.342642</ele>
        <time>2024-03-24T08:37:40.000Z</time>
      </trkpt>
      <trkpt lat="-37.86266" lon="144.972513">
        <ele>12.378311</ele>
        <time>2024-03-24T08:37:45.000Z</time>
      </trkpt>
      <trkpt lat="-37.862877" lon="144.972353">
        <ele>12.399082</ele>
        <time>2024-03-24T08:37:48.000Z</time>
      </trkpt>
      <trkpt lat="-37.863125" lon="144.972262">
        <ele>12.194921</ele>
        <time>2024-03-24T08:37:51.000Z</time>
      </trkpt>
      <trkpt lat="-37.863821" lon="144.972171">
        <ele>11.626724</ele>
        <time>2024-03-24T08:37:59.000Z</time>
      </trkpt>
      <trkpt lat="-37.864269" lon="144.972214">
        <ele>11.26428</ele>
        <time>2024-03-24T08:38:04.000Z</time>
      </trkpt>
      <trkpt lat="-37.865019" lon="144.972688">
        <ele>10.494159</ele>
        <time>2024-03-24T08:38:13.000Z</time>
      </trkpt>
      <trkpt lat="-37.865243" lon="144.972935">
        <ele>10.185079</ele>
        <time>2024-03-24T08:38:16.000Z</time>
      </trkpt>
      <trkpt lat="-37.865761" lon="144.973646">
        <ele>9.387098</ele>
        <time>2024-03-24T08:38:24.000Z</time>
      </trkpt>
      <trkpt lat="-37.86589" lon="144.973787">
        <ele>9.210977</ele>
        <time>2024-03-24T08:38:26.000Z</time>
      </trkpt>
      <trkpt lat="-37.865967" lon="144.973871">
        <ele>9.101973</ele>
        <time>2024-03-24T08:38:27.000Z</time>
      </trkpt>
      <trkpt lat="-37.866267" lon="144.97412">
        <ele>8.90672</ele>
        <time>2024-03-24T08:38:31.000Z</time>
      </trkpt>
      <trkpt lat="-37.866344" lon="144.974156">
        <ele>8.855679</ele>
        <time>2024-03-24T08:38:32.000Z</time>
      </trkpt>
      <trkpt lat="-37.866449" lon="144.974215">
        <ele>8.794752</ele>
        <time>2024-03-24T08:38:33.000Z</time>
      </trkpt>
      <trkpt lat="-37.866682" lon="144.974346">
        <ele>8.654368</ele>
        <time>2024-03-24T08:38:36.000Z</time>
      </trkpt>
      <trkpt lat="-37.866968" lon="144.974496">
        <ele>8.488509</ele>
        <time>2024-03-24T08:38:39.000Z</time>
      </trkpt>
      <trkpt lat="-37.86722" lon="144.974613">
        <ele>8.34161</ele>
        <time>2024-03-24T08:38:42.000Z</time>
      </trkpt>
      <trkpt lat="-37.867697" lon="144.974916">
        <ele>8.104929</ele>
        <time>2024-03-24T08:38:48.000Z</time>
      </trkpt>
      <trkpt lat="-37.86821" lon="144.975256">
        <ele>8.134934</ele>
        <time>2024-03-24T08:38:54.000Z</time>
      </trkpt>
      <trkpt lat="-37.868338" lon="144.975344">
        <ele>8.141442</ele>
        <time>2024-03-24T08:38:56.000Z</time>
      </trkpt>
      <trkpt lat="-37.868645" lon="144.97553">
        <ele>8.15877</ele>
        <time>2024-03-24T08:39:00.000Z</time>
      </trkpt>
      <trkpt lat="-37.868712" lon="144.97559">
        <ele>8.163206</ele>
        <time>2024-03-24T08:39:01.000Z</time>
      </trkpt>
      <trkpt lat="-37.868783" lon="144.97564">
        <ele>8.16761</ele>
        <time>2024-03-24T08:39:02.000Z</time>
      </trkpt>
      <trkpt lat="-37.86888" lon="144.975693">
        <ele>8.172613</ele>
        <time>2024-03-24T08:39:03.000Z</time>
      </trkpt>
      <trkpt lat="-37.869151" lon="144.975872">
        <ele>8.187864</ele>
        <time>2024-03-24T08:39:06.000Z</time>
      </trkpt>
      <trkpt lat="-37.869338" lon="144.975973">
        <ele>8.151993</ele>
        <time>2024-03-24T08:39:08.000Z</time>
      </trkpt>
      <trkpt lat="-37.869426" lon="144.976038">
        <ele>8.1253</ele>
        <time>2024-03-24T08:39:09.000Z</time>
      </trkpt>
      <trkpt lat="-37.8696" lon="144.976111">
        <ele>8.071255</ele>
        <time>2024-03-24T08:39:11.000Z</time>
      </trkpt>
      <trkpt lat="-37.869739" lon="144.976159">
        <ele>8.030063</ele>
        <time>2024-03-24T08:39:13.000Z</time>
      </trkpt>
      <trkpt lat="-37.870551" lon="144.976276">
        <ele>7.799746</ele>
        <time>2024-03-24T08:39:22.000Z</time>
      </trkpt>
      <trkpt lat="-37.871196" lon="144.976365">
        <ele>7.564927</ele>
        <time>2024-03-24T08:39:29.000Z</time>
      </trkpt>
      <trkpt lat="-37.871223" lon="144.97637">
        <ele>7.547432</ele>
        <time>2024-03-24T08:39:29.000Z</time>
      </trkpt>
      <trkpt lat="-37.871234" lon="144.97636">
        <ele>7.546788</ele>
        <time>2024-03-24T08:39:29.000Z</time>
      </trkpt>
      <trkpt lat="-37.871882" lon="144.97645">
        <ele>7.209223</ele>
        <time>2024-03-24T08:39:36.000Z</time>
      </trkpt>
      <trkpt lat="-37.871996" lon="144.976472">
        <ele>7.149946</ele>
        <time>2024-03-24T08:39:37.000Z</time>
      </trkpt>
      <trkpt lat="-37.872102" lon="144.976486">
        <ele>7.099521</ele>
        <time>2024-03-24T08:39:38.000Z</time>
      </trkpt>
      <trkpt lat="-37.87299" lon="144.976597">
        <ele>6.696828</ele>
        <time>2024-03-24T08:39:48.000Z</time>
      </trkpt>
      <trkpt lat="-37.873013" lon="144.976611">
        <ele>6.687439</ele>
        <time>2024-03-24T08:39:48.000Z</time>
      </trkpt>
      <trkpt lat="-37.874065" lon="144.976759">
        <ele>6.378672</ele>
        <time>2024-03-24T08:40:00.000Z</time>
      </trkpt>
      <trkpt lat="-37.8745" lon="144.976812">
        <ele>6.249719</ele>
        <time>2024-03-24T08:40:05.000Z</time>
      </trkpt>
      <trkpt lat="-37.87485" lon="144.976868">
        <ele>6.191806</ele>
        <time>2024-03-24T08:40:09.000Z</time>
      </trkpt>
      <trkpt lat="-37.874956" lon="144.976877">
        <ele>6.177556</ele>
        <time>2024-03-24T08:40:10.000Z</time>
      </trkpt>
      <trkpt lat="-37.875206" lon="144.976917">
        <ele>6.139797</ele>
        <time>2024-03-24T08:40:13.000Z</time>
      </trkpt>
      <trkpt lat="-37.875277" lon="144.976919">
        <ele>6.129409</ele>
        <time>2024-03-24T08:40:14.000Z</time>
      </trkpt>
      <trkpt lat="-37.875349" lon="144.976923">
        <ele>6.119289</ele>
        <time>2024-03-24T08:40:15.000Z</time>
      </trkpt>
      <trkpt lat="-37.875426" lon="144.976945">
        <ele>6.108451</ele>
        <time>2024-03-24T08:40:16.000Z</time>
      </trkpt>
      <trkpt lat="-37.876242" lon="144.977054">
        <ele>5.985141</ele>
        <time>2024-03-24T08:40:25.000Z</time>
      </trkpt>
      <trkpt lat="-37.876269" lon="144.977065">
        <ele>5.98099</ele>
        <time>2024-03-24T08:40:25.000Z</time>
      </trkpt>
      <trkpt lat="-37.877116" lon="144.977169">
        <ele>5.845505</ele>
        <time>2024-03-24T08:40:34.000Z</time>
      </trkpt>
      <trkpt lat="-37.878704" lon="144.977379">
        <ele>5.439945</ele>
        <time>2024-03-24T08:40:52.000Z</time>
      </trkpt>
      <trkpt lat="-37.878886" lon="144.977411">
        <ele>5.363441</ele>
        <time>2024-03-24T08:40:54.000Z</time>
      </trkpt>
      <trkpt lat="-37.878944" lon="144.977426">
        <ele>5.342285</ele>
        <time>2024-03-24T08:40:55.000Z</time>
      </trkpt>
      <trkpt lat="-37.879767" lon="144.977531">
        <ele>5.004792</ele>
        <time>2024-03-24T08:41:04.000Z</time>
      </trkpt>
      <trkpt lat="-37.8799" lon="144.977559">
        <ele>4.953161</ele>
        <time>2024-03-24T08:41:05.000Z</time>
      </trkpt>
      <trkpt lat="-37.880068" lon="144.977593">
        <ele>5.022634</ele>
        <time>2024-03-24T08:41:07.000Z</time>
      </trkpt>
      <trkpt lat="-37.880227" lon="144.977608">
        <ele>5.091626</ele>
        <time>2024-03-24T08:41:09.000Z</time>
      </trkpt>
      <trkpt lat="-37.880644" lon="144.977666">
        <ele>5.267351</ele>
        <time>2024-03-24T08:41:14.000Z</time>
      </trkpt>
      <trkpt lat="-37.88072" lon="144.977674">
        <ele>5.301651</ele>
        <time>2024-03-24T08:41:15.000Z</time>
      </trkpt>
      <trkpt lat="-37.881059" lon="144.977712">
        <ele>5.444289</ele>
        <time>2024-03-24T08:41:19.000Z</time>
      </trkpt>
      <trkpt lat="-37.881246" lon="144.977747">
        <ele>5.523978</ele>
        <time>2024-03-24T08:41:21.000Z</time>
      </trkpt>
      <trkpt lat="-37.881332" lon="144.977772">
        <ele>5.561423</ele>
        <time>2024-03-24T08:41:22.000Z</time>
      </trkpt>
      <trkpt lat="-37.881681" lon="144.977884">
        <ele>5.718778</ele>
        <time>2024-03-24T08:41:26.000Z</time>
      </trkpt>
      <trkpt lat="-37.88183" lon="144.977957">
        <ele>5.852276</ele>
        <time>2024-03-24T08:41:28.000Z</time>
      </trkpt>
      <trkpt lat="-37.881885" lon="144.977982">
        <ele>5.914666</ele>
        <time>2024-03-24T08:41:29.000Z</time>
      </trkpt>
      <trkpt lat="-37.882008" lon="144.978031">
        <ele>6.016011</ele>
        <time>2024-03-24T08:41:30.000Z</time>
      </trkpt>
      <trkpt lat="-37.882214" lon="144.97814">
        <ele>6.218248</ele>
        <time>2024-03-24T08:41:32.000Z</time>
      </trkpt>
      <trkpt lat="-37.882222" lon="144.978152">
        <ele>6.222035</ele>
        <time>2024-03-24T08:41:32.000Z</time>
      </trkpt>
      <trkpt lat="-37.882225" lon="144.978161">
        <ele>6.225815</ele>
        <time>2024-03-24T08:41:32.000Z</time>
      </trkpt>
      <trkpt lat="-37.882283" lon="144.978181">
        <ele>6.291161</ele>
        <time>2024-03-24T08:41:33.000Z</time>
      </trkpt>
      <trkpt lat="-37.882455" lon="144.978298">
        <ele>6.449915</ele>
        <time>2024-03-24T08:41:35.000Z</time>
      </trkpt>
      <trkpt lat="-37.883003" lon="144.978701">
        <ele>7.016117</ele>
        <time>2024-03-24T08:41:42.000Z</time>
      </trkpt>
      <trkpt lat="-37.883063" lon="144.978756">
        <ele>7.085656</ele>
        <time>2024-03-24T08:41:43.000Z</time>
      </trkpt>
      <trkpt lat="-37.88327" lon="144.978923">
        <ele>7.298508</ele>
        <time>2024-03-24T08:41:46.000Z</time>
      </trkpt>
      <trkpt lat="-37.883412" lon="144.979008">
        <ele>7.281799</ele>
        <time>2024-03-24T08:41:48.000Z</time>
      </trkpt>
      <trkpt lat="-37.883929" lon="144.979391">
        <ele>7.207487</ele>
        <time>2024-03-24T08:41:55.000Z</time>
      </trkpt>
      <trkpt lat="-37.884473" lon="144.979923">
        <ele>7.121182</ele>
        <time>2024-03-24T08:42:03.000Z</time>
      </trkpt>
      <trkpt lat="-37.884821" lon="144.980288">
        <ele>7.095192</ele>
        <time>2024-03-24T08:42:08.000Z</time>
      </trkpt>
      <trkpt lat="-37.88533" lon="144.981063">
        <ele>7.255886</ele>
        <time>2024-03-24T08:42:17.000Z</time>
      </trkpt>
      <trkpt lat="-37.885475" lon="144.981306">
        <ele>7.302653</ele>
        <time>2024-03-24T08:42:20.000Z</time>
      </trkpt>
      <trkpt lat="-37.885764" lon="144.981782">
        <ele>7.398716</ele>
        <time>2024-03-24T08:42:25.000Z</time>
      </trkpt>
      <trkpt lat="-37.885992" lon="144.982161">
        <ele>7.433001</ele>
        <time>2024-03-24T08:42:29.000Z</time>
      </trkpt>
      <trkpt lat="-37.886027" lon="144.982238">
        <ele>7.430125</ele>
        <time>2024-03-24T08:42:30.000Z</time>
      </trkpt>
      <trkpt lat="-37.886311" lon="144.982693">
        <ele>7.412488</ele>
        <time>2024-03-24T08:42:35.000Z</time>
      </trkpt>
      <trkpt lat="-37.886387" lon="144.982819">
        <ele>7.407211</ele>
        <time>2024-03-24T08:42:36.000Z</time>
      </trkpt>
      <trkpt lat="-37.886586" lon="144.983154">
        <ele>7.394792</ele>
        <time>2024-03-24T08:42:40.000Z</time>
      </trkpt>
      <trkpt lat="-37.886882" lon="144.983609">
        <ele>7.376728</ele>
        <time>2024-03-24T08:42:45.000Z</time>
      </trkpt>
      <trkpt lat="-37.88703" lon="144.983895">
        <ele>7.3038</ele>
        <time>2024-03-24T08:42:48.000Z</time>
      </trkpt>
      <trkpt lat="-37.887138" lon="144.984043">
        <ele>7.196945</ele>
        <time>2024-03-24T08:42:50.000Z</time>
      </trkpt>
      <trkpt lat="-37.887187" lon="144.984111">
        <ele>7.146065</ele>
        <time>2024-03-24T08:42:51.000Z</time>
      </trkpt>
      <trkpt lat="-37.887237" lon="144.984229">
        <ele>7.06976</ele>
        <time>2024-03-24T08:42:52.000Z</time>
      </trkpt>
      <trkpt lat="-37.887397" lon="144.984486">
        <ele>6.898078</ele>
        <time>2024-03-24T08:42:55.000Z</time>
      </trkpt>
      <trkpt lat="-37.887421" lon="144.984509">
        <ele>6.87688</ele>
        <time>2024-03-24T08:42:55.000Z</time>
      </trkpt>
      <trkpt lat="-37.88746" lon="144.984564">
        <ele>6.844645</ele>
        <time>2024-03-24T08:42:56.000Z</time>
      </trkpt>
      <trkpt lat="-37.887523" lon="144.984684">
        <ele>6.762411</ele>
        <time>2024-03-24T08:42:57.000Z</time>
      </trkpt>
      <trkpt lat="-37.887568" lon="144.984748">
        <ele>6.719155</ele>
        <time>2024-03-24T08:42:58.000Z</time>
      </trkpt>
      <trkpt lat="-37.887699" lon="144.984956">
        <ele>6.565276</ele>
        <time>2024-03-24T08:43:00.000Z</time>
      </trkpt>
      <trkpt lat="-37.887982" lon="144.985428">
        <ele>6.251937</ele>
        <time>2024-03-24T08:43:05.000Z</time>
      </trkpt>
      <trkpt lat="-37.888115" lon="144.985661">
        <ele>6.142263</ele>
        <time>2024-03-24T08:43:08.000Z</time>
      </trkpt>
      <trkpt lat="-37.888123" lon="144.985659">
        <ele>6.142369</ele>
        <time>2024-03-24T08:43:08.000Z</time>
      </trkpt>
      <trkpt lat="-37.888134" lon="144.985684">
        <ele>6.14406</ele>
        <time>2024-03-24T08:43:08.000Z</time>
      </trkpt>
      <trkpt lat="-37.888133" lon="144.985698">
        <ele>6.144202</ele>
        <time>2024-03-24T08:43:08.000Z</time>
      </trkpt>
      <trkpt lat="-37.888258" lon="144.985886">
        <ele>6.153859</ele>
        <time>2024-03-24T08:43:10.000Z</time>
      </trkpt>
      <trkpt lat="-37.888528" lon="144.986339">
        <ele>6.176792</ele>
        <time>2024-03-24T08:43:15.000Z</time>
      </trkpt>
      <trkpt lat="-37.888808" lon="144.9868">
        <ele>6.200387</ele>
        <time>2024-03-24T08:43:20.000Z</time>
      </trkpt>
      <trkpt lat="-37.888843" lon="144.98686">
        <ele>6.203295</ele>
        <time>2024-03-24T08:43:21.000Z</time>
      </trkpt>
      <trkpt lat="-37.88902" lon="144.987154">
        <ele>6.218178</ele>
        <time>2024-03-24T08:43:24.000Z</time>
      </trkpt>
      <trkpt lat="-37.889077" lon="144.987254">
        <ele>6.223008</ele>
        <time>2024-03-24T08:43:25.000Z</time>
      </trkpt>
      <trkpt lat="-37.889358" lon="144.987721">
        <ele>6.523398</ele>
        <time>2024-03-24T08:43:30.000Z</time>
      </trkpt>
      <trkpt lat="-37.890325" lon="144.989304">
        <ele>7.95747</ele>
        <time>2024-03-24T08:43:48.000Z</time>
      </trkpt>
      <trkpt lat="-37.890855" lon="144.990208">
        <ele>8.225146</ele>
        <time>2024-03-24T08:43:58.000Z</time>
      </trkpt>
      <trkpt lat="-37.891043" lon="144.990502">
        <ele>8.31808</ele>
        <time>2024-03-24T08:44:01.000Z</time>
      </trkpt>
      <trkpt lat="-37.890854" lon="144.990205">
        <ele>8.411013</ele>
        <time>2024-03-24T08:44:04.000Z</time>
      </trkpt>
      <trkpt lat="-37.890325" lon="144.989307">
        <ele>7.870249</ele>
        <time>2024-03-24T08:44:14.000Z</time>
      </trkpt>
      <trkpt lat="-37.889361" lon="144.987717">
        <ele>6.65862</ele>
        <time>2024-03-24T08:44:32.000Z</time>
      </trkpt>
      <trkpt lat="-37.889077" lon="144.987242">
        <ele>6.401132</ele>
        <time>2024-03-24T08:44:37.000Z</time>
      </trkpt>
      <trkpt lat="-37.889026" lon="144.98715">
        <ele>6.34839</ele>
        <time>2024-03-24T08:44:38.000Z</time>
      </trkpt>
      <trkpt lat="-37.888844" lon="144.986872">
        <ele>6.18571</ele>
        <time>2024-03-24T08:44:41.000Z</time>
      </trkpt>
      <trkpt lat="-37.888802" lon="144.986807">
        <ele>6.154001</ele>
        <time>2024-03-24T08:44:42.000Z</time>
      </trkpt>
      <trkpt lat="-37.888521" lon="144.986332">
        <ele>5.944828</ele>
        <time>2024-03-24T08:44:47.000Z</time>
      </trkpt>
      <trkpt lat="-37.888254" lon="144.985886">
        <ele>6.165066</ele>
        <time>2024-03-24T08:44:52.000Z</time>
      </trkpt>
      <trkpt lat="-37.888135" lon="144.985697">
        <ele>6.257761</ele>
        <time>2024-03-24T08:44:54.000Z</time>
      </trkpt>
      <trkpt lat="-37.888144" lon="144.985688">
        <ele>6.258998</ele>
        <time>2024-03-24T08:44:54.000Z</time>
      </trkpt>
      <trkpt lat="-37.888112" lon="144.985659">
        <ele>6.275371</ele>
        <time>2024-03-24T08:44:54.000Z</time>
      </trkpt>
      <trkpt lat="-37.888109" lon="144.985652">
        <ele>6.276279</ele>
        <time>2024-03-24T08:44:54.000Z</time>
      </trkpt>
      <trkpt lat="-37.887975" lon="144.985425">
        <ele>6.38594</ele>
        <time>2024-03-24T08:44:56.000Z</time>
      </trkpt>
      <trkpt lat="-37.887707" lon="144.984973">
        <ele>6.6098</ele>
        <time>2024-03-24T08:45:01.000Z</time>
      </trkpt>
      <trkpt lat="-37.887565" lon="144.984734">
        <ele>6.719743</ele>
        <time>2024-03-24T08:45:04.000Z</time>
      </trkpt>
      <trkpt lat="-37.887534" lon="144.98468">
        <ele>6.750646</ele>
        <time>2024-03-24T08:45:05.000Z</time>
      </trkpt>
      <trkpt lat="-37.887446" lon="144.984564">
        <ele>6.808965</ele>
        <time>2024-03-24T08:45:06.000Z</time>
      </trkpt>
      <trkpt lat="-37.887425" lon="144.984508">
        <ele>6.830728</ele>
        <time>2024-03-24T08:45:07.000Z</time>
      </trkpt>
      <trkpt lat="-37.887405" lon="144.984485">
        <ele>6.845052</ele>
        <time>2024-03-24T08:45:07.000Z</time>
      </trkpt>
      <trkpt lat="-37.887255" lon="144.98424">
        <ele>6.961048</ele>
        <time>2024-03-24T08:45:10.000Z</time>
      </trkpt>
      <trkpt lat="-37.887178" lon="144.984119">
        <ele>7.012616</ele>
        <time>2024-03-24T08:45:11.000Z</time>
      </trkpt>
      <trkpt lat="-37.887142" lon="144.984041">
        <ele>7.046984</ele>
        <time>2024-03-24T08:45:12.000Z</time>
      </trkpt>
      <trkpt lat="-37.887042" lon="144.98388">
        <ele>7.119168</ele>
        <time>2024-03-24T08:45:14.000Z</time>
      </trkpt>
      <trkpt lat="-37.886874" lon="144.98362">
        <ele>7.244339</ele>
        <time>2024-03-24T08:45:17.000Z</time>
      </trkpt>
      <trkpt lat="-37.886593" lon="144.983141">
        <ele>7.460028</ele>
        <time>2024-03-24T08:45:22.000Z</time>
      </trkpt>
      <trkpt lat="-37.886397" lon="144.982817">
        <ele>7.608404</ele>
        <time>2024-03-24T08:45:26.000Z</time>
      </trkpt>
      <trkpt lat="-37.886318" lon="144.982689">
        <ele>7.606354</ele>
        <time>2024-03-24T08:45:27.000Z</time>
      </trkpt>
      <trkpt lat="-37.886039" lon="144.982235">
        <ele>7.46129</ele>
        <time>2024-03-24T08:45:32.000Z</time>
      </trkpt>
      <trkpt lat="-37.885982" lon="144.982153">
        <ele>7.437612</ele>
        <time>2024-03-24T08:45:33.000Z</time>
      </trkpt>
      <trkpt lat="-37.885769" lon="144.981781">
        <ele>7.318397</ele>
        <time>2024-03-24T08:45:37.000Z</time>
      </trkpt>
      <trkpt lat="-37.885473" lon="144.981296">
        <ele>7.166445</ele>
        <time>2024-03-24T08:45:42.000Z</time>
      </trkpt>
      <trkpt lat="-37.885337" lon="144.981072">
        <ele>7.092435</ele>
        <time>2024-03-24T08:45:44.000Z</time>
      </trkpt>
      <trkpt lat="-37.884817" lon="144.980279">
        <ele>7.045234</ele>
        <time>2024-03-24T08:45:53.000Z</time>
      </trkpt>
      <trkpt lat="-37.884795" lon="144.980169">
        <ele>7.043294</ele>
        <time>2024-03-24T08:45:54.000Z</time>
      </trkpt>
      <trkpt lat="-37.884652" lon="144.979965">
        <ele>7.03872</ele>
        <time>2024-03-24T08:45:56.000Z</time>
      </trkpt>
      <trkpt lat="-37.88457" lon="144.979854">
        <ele>7.036073</ele>
        <time>2024-03-24T08:45:57.000Z</time>
      </trkpt>
      <trkpt lat="-37.884026" lon="144.979302">
        <ele>7.015645</ele>
        <time>2024-03-24T08:46:05.000Z</time>
      </trkpt>
      <trkpt lat="-37.883155" lon="144.97862">
        <ele>6.79985</ele>
        <time>2024-03-24T08:46:16.000Z</time>
      </trkpt>
      <trkpt lat="-37.883119" lon="144.978609">
        <ele>6.793562</ele>
        <time>2024-03-24T08:46:16.000Z</time>
      </trkpt>
      <trkpt lat="-37.882914" lon="144.978454">
        <ele>6.743595</ele>
        <time>2024-03-24T08:46:19.000Z</time>
      </trkpt>
      <trkpt lat="-37.882926" lon="144.978447">
        <ele>6.743126</ele>
        <time>2024-03-24T08:46:19.000Z</time>
      </trkpt>
      <trkpt lat="-37.882587" lon="144.978211">
        <ele>6.661719</ele>
        <time>2024-03-24T08:46:23.000Z</time>
      </trkpt>
      <trkpt lat="-37.882322" lon="144.978038">
        <ele>6.542314</ele>
        <time>2024-03-24T08:46:26.000Z</time>
      </trkpt>
      <trkpt lat="-37.882038" lon="144.97787">
        <ele>6.392161</ele>
        <time>2024-03-24T08:46:29.000Z</time>
      </trkpt>
      <trkpt lat="-37.881925" lon="144.97781">
        <ele>6.333258</ele>
        <time>2024-03-24T08:46:30.000Z</time>
      </trkpt>
      <trkpt lat="-37.881884" lon="144.977796">
        <ele>6.310709</ele>
        <time>2024-03-24T08:46:30.000Z</time>
      </trkpt>
      <trkpt lat="-37.881811" lon="144.977773">
        <ele>6.273165</ele>
        <time>2024-03-24T08:46:31.000Z</time>
      </trkpt>
      <trkpt lat="-37.881759" lon="144.977742">
        <ele>6.251664</ele>
        <time>2024-03-24T08:46:32.000Z</time>
      </trkpt>
      <trkpt lat="-37.881226" lon="144.977575">
        <ele>5.979503</ele>
        <time>2024-03-24T08:46:38.000Z</time>
      </trkpt>
      <trkpt lat="-37.880735" lon="144.977501">
        <ele>5.793443</ele>
        <time>2024-03-24T08:46:43.000Z</time>
      </trkpt>
      <trkpt lat="-37.88082" lon="144.977197">
        <ele>5.917586</ele>
        <time>2024-03-24T08:46:46.000Z</time>
      </trkpt>
      <trkpt lat="-37.881184" lon="144.97698">
        <ele>6.10028</ele>
        <time>2024-03-24T08:46:50.000Z</time>
      </trkpt>
      <trkpt lat="-37.88147" lon="144.976889">
        <ele>6.238528</ele>
        <time>2024-03-24T08:46:53.000Z</time>
      </trkpt>
      <trkpt lat="-37.88177" lon="144.976911">
        <ele>6.384989</ele>
        <time>2024-03-24T08:46:56.000Z</time>
      </trkpt>
      <trkpt lat="-37.882084" lon="144.977055">
        <ele>6.537908</ele>
        <time>2024-03-24T08:47:00.000Z</time>
      </trkpt>
      <trkpt lat="-37.882703" lon="144.977823">
        <ele>6.729611</ele>
        <time>2024-03-24T08:47:10.000Z</time>
      </trkpt>
      <trkpt lat="-37.883189" lon="144.97816">
        <ele>6.818352</ele>
        <time>2024-03-24T08:47:16.000Z</time>
      </trkpt>
      <trkpt lat="-37.883276" lon="144.978191">
        <ele>6.833188</ele>
        <time>2024-03-24T08:47:17.000Z</time>
      </trkpt>
      <trkpt lat="-37.883726" lon="144.978492">
        <ele>6.900032</ele>
        <time>2024-03-24T08:47:23.000Z</time>
      </trkpt>
      <trkpt lat="-37.883264" lon="144.978203">
        <ele>6.83083</ele>
        <time>2024-03-24T08:47:29.000Z</time>
      </trkpt>
      <trkpt lat="-37.883176" lon="144.978154">
        <ele>6.818764</ele>
        <time>2024-03-24T08:47:30.000Z</time>
      </trkpt>
      <trkpt lat="-37.882717" lon="144.977809">
        <ele>6.7466</ele>
        <time>2024-03-24T08:47:36.000Z</time>
      </trkpt>
      <trkpt lat="-37.882077" lon="144.977055">
        <ele>6.456681</ele>
        <time>2024-03-24T08:47:46.000Z</time>
      </trkpt>
      <trkpt lat="-37.881777" lon="144.976911">
        <ele>6.214285</ele>
        <time>2024-03-24T08:47:50.000Z</time>
      </trkpt>
      <trkpt lat="-37.881457" lon="144.976895">
        <ele>5.982116</ele>
        <time>2024-03-24T08:47:54.000Z</time>
      </trkpt>
      <trkpt lat="-37.881176" lon="144.97697">
        <ele>5.762961</ele>
        <time>2024-03-24T08:47:57.000Z</time>
      </trkpt>
      <trkpt lat="-37.880836" lon="144.977191">
        <ele>5.473344</ele>
        <time>2024-03-24T08:48:01.000Z</time>
      </trkpt>
      <trkpt lat="-37.880684" lon="144.977289">
        <ele>5.354834</ele>
        <time>2024-03-24T08:48:03.000Z</time>
      </trkpt>
      <trkpt lat="-37.880643" lon="144.977496">
        <ele>5.320539</ele>
        <time>2024-03-24T08:48:05.000Z</time>
      </trkpt>
      <trkpt lat="-37.88046" lon="144.977486">
        <ele>5.309225</ele>
        <time>2024-03-24T08:48:07.000Z</time>
      </trkpt>
      <trkpt lat="-37.880441" lon="144.977478">
        <ele>5.308642</ele>
        <time>2024-03-24T08:48:07.000Z</time>
      </trkpt>
      <trkpt lat="-37.880447" lon="144.977481">
        <ele>5.308414</ele>
        <time>2024-03-24T08:48:07.000Z</time>
      </trkpt>
      <trkpt lat="-37.880261" lon="144.977453">
        <ele>5.29826</ele>
        <time>2024-03-24T08:48:09.000Z</time>
      </trkpt>
      <trkpt lat="-37.879055" lon="144.977298">
        <ele>5.228147</ele>
        <time>2024-03-24T08:48:22.000Z</time>
      </trkpt>
      <trkpt lat="-37.878961" lon="144.977293">
        <ele>5.233882</ele>
        <time>2024-03-24T08:48:23.000Z</time>
      </trkpt>
      <trkpt lat="-37.878915" lon="144.977293">
        <ele>5.246697</ele>
        <time>2024-03-24T08:48:24.000Z</time>
      </trkpt>
      <trkpt lat="-37.878721" lon="144.977262">
        <ele>5.294031</ele>
        <time>2024-03-24T08:48:26.000Z</time>
      </trkpt>
      <trkpt lat="-37.877117" lon="144.977039">
        <ele>5.679269</ele>
        <time>2024-03-24T08:48:44.000Z</time>
      </trkpt>
      <trkpt lat="-37.876276" lon="144.976931">
        <ele>5.741815</ele>
        <time>2024-03-24T08:48:53.000Z</time>
      </trkpt>
      <trkpt lat="-37.87623" lon="144.97692">
        <ele>5.744102</ele>
        <time>2024-03-24T08:48:54.000Z</time>
      </trkpt>
      <trkpt lat="-37.876164" lon="144.976917">
        <ele>5.748979</ele>
        <time>2024-03-24T08:48:55.000Z</time>
      </trkpt>
      <trkpt lat="-37.875887" lon="144.976873">
        <ele>5.77053</ele>
        <time>2024-03-24T08:48:58.000Z</time>
      </trkpt>
      <trkpt lat="-37.875715" lon="144.976851">
        <ele>5.783068</ele>
        <time>2024-03-24T08:49:00.000Z</time>
      </trkpt>
      <trkpt lat="-37.875701" lon="144.976862">
        <ele>5.783795</ele>
        <time>2024-03-24T08:49:00.000Z</time>
      </trkpt>
      <trkpt lat="-37.875635" lon="144.976842">
        <ele>5.788445</ele>
        <time>2024-03-24T08:49:01.000Z</time>
      </trkpt>
      <trkpt lat="-37.875486" lon="144.976832">
        <ele>5.799727</ele>
        <time>2024-03-24T08:49:03.000Z</time>
      </trkpt>
      <trkpt lat="-37.875407" lon="144.976809">
        <ele>5.808203</ele>
        <time>2024-03-24T08:49:04.000Z</time>
      </trkpt>
      <trkpt lat="-37.87531" lon="144.976805">
        <ele>5.827989</ele>
        <time>2024-03-24T08:49:05.000Z</time>
      </trkpt>
      <trkpt lat="-37.875209" lon="144.976795">
        <ele>5.849867</ele>
        <time>2024-03-24T08:49:06.000Z</time>
      </trkpt>
      <trkpt lat="-37.873936" lon="144.976617">
        <ele>6.133437</ele>
        <time>2024-03-24T08:49:20.000Z</time>
      </trkpt>
      <trkpt lat="-37.873927" lon="144.976614">
        <ele>6.135215</ele>
        <time>2024-03-24T08:49:20.000Z</time>
      </trkpt>
      <trkpt lat="-37.873933" lon="144.97662">
        <ele>6.136109</ele>
        <time>2024-03-24T08:49:20.000Z</time>
      </trkpt>
      <trkpt lat="-37.873134" lon="144.976512">
        <ele>6.420939</ele>
        <time>2024-03-24T08:49:29.000Z</time>
      </trkpt>
      <trkpt lat="-37.873026" lon="144.976484">
        <ele>6.467027</ele>
        <time>2024-03-24T08:49:30.000Z</time>
      </trkpt>
      <trkpt lat="-37.872103" lon="144.976372">
        <ele>6.86242</ele>
        <time>2024-03-24T08:49:40.000Z</time>
      </trkpt>
      <trkpt lat="-37.872046" lon="144.976352">
        <ele>6.890678</ele>
        <time>2024-03-24T08:49:41.000Z</time>
      </trkpt>
      <trkpt lat="-37.871898" lon="144.976345">
        <ele>6.953615</ele>
        <time>2024-03-24T08:49:43.000Z</time>
      </trkpt>
      <trkpt lat="-37.871649" lon="144.976314">
        <ele>7.053075</ele>
        <time>2024-03-24T08:49:46.000Z</time>
      </trkpt>
      <trkpt lat="-37.87121" lon="144.976249">
        <ele>7.221304</ele>
        <time>2024-03-24T08:49:51.000Z</time>
      </trkpt>
      <trkpt lat="-37.871221" lon="144.976238">
        <ele>7.222076</ele>
        <time>2024-03-24T08:49:51.000Z</time>
      </trkpt>
      <trkpt lat="-37.870565" lon="144.976158">
        <ele>7.470165</ele>
        <time>2024-03-24T08:49:58.000Z</time>
      </trkpt>
      <trkpt lat="-37.869823" lon="144.976045">
        <ele>7.687747</ele>
        <time>2024-03-24T08:50:06.000Z</time>
      </trkpt>
      <trkpt lat="-37.86946" lon="144.975887">
        <ele>7.715407</ele>
        <time>2024-03-24T08:50:10.000Z</time>
      </trkpt>
      <trkpt lat="-37.869214" lon="144.975761">
        <ele>7.735241</ele>
        <time>2024-03-24T08:50:13.000Z</time>
      </trkpt>
      <trkpt lat="-37.868922" lon="144.975563">
        <ele>7.760101</ele>
        <time>2024-03-24T08:50:17.000Z</time>
      </trkpt>
      <trkpt lat="-37.868858" lon="144.975514">
        <ele>7.765803</ele>
        <time>2024-03-24T08:50:18.000Z</time>
      </trkpt>
      <trkpt lat="-37.868769" lon="144.975469">
        <ele>7.772374</ele>
        <time>2024-03-24T08:50:19.000Z</time>
      </trkpt>
      <trkpt lat="-37.868725" lon="144.975428">
        <ele>7.777253</ele>
        <time>2024-03-24T08:50:20.000Z</time>
      </trkpt>
      <trkpt lat="-37.867673" lon="144.974783">
        <ele>7.821644</ele>
        <time>2024-03-24T08:50:33.000Z</time>
      </trkpt>
      <trkpt lat="-37.867304" lon="144.974558">
        <ele>7.830967</ele>
        <time>2024-03-24T08:50:38.000Z</time>
      </trkpt>
      <trkpt lat="-37.86728" lon="144.97454">
        <ele>7.831324</ele>
        <time>2024-03-24T08:50:38.000Z</time>
      </trkpt>
      <trkpt lat="-37.867007" lon="144.974369">
        <ele>7.838089</ele>
        <time>2024-03-24T08:50:41.000Z</time>
      </trkpt>
      <trkpt lat="-37.866805" lon="144.974254">
        <ele>7.843119</ele>
        <time>2024-03-24T08:50:43.000Z</time>
      </trkpt>
      <trkpt lat="-37.866637" lon="144.974156">
        <ele>7.958384</ele>
        <time>2024-03-24T08:50:45.000Z</time>
      </trkpt>
      <trkpt lat="-37.866414" lon="144.974025">
        <ele>8.122735</ele>
        <time>2024-03-24T08:50:48.000Z</time>
      </trkpt>
      <trkpt lat="-37.866339" lon="144.973973">
        <ele>8.185887</ele>
        <time>2024-03-24T08:50:49.000Z</time>
      </trkpt>
      <trkpt lat="-37.866308" lon="144.973946">
        <ele>8.213206</ele>
        <time>2024-03-24T08:50:49.000Z</time>
      </trkpt>
      <trkpt lat="-37.865829" lon="144.973562">
        <ele>8.606875</ele>
        <time>2024-03-24T08:50:55.000Z</time>
      </trkpt>
      <trkpt lat="-37.865474" lon="144.973093">
        <ele>8.959373</ele>
        <time>2024-03-24T08:51:01.000Z</time>
      </trkpt>
      <trkpt lat="-37.865445" lon="144.97303">
        <ele>9.004578</ele>
        <time>2024-03-24T08:51:02.000Z</time>
      </trkpt>
      <trkpt lat="-37.865203" lon="144.972735">
        <ele>9.38195</ele>
        <time>2024-03-24T08:51:06.000Z</time>
      </trkpt>
      <trkpt lat="-37.865008" lon="144.972563">
        <ele>9.732552</ele>
        <time>2024-03-24T08:51:09.000Z</time>
      </trkpt>
      <trkpt lat="-37.864367" lon="144.972165">
        <ele>10.754444</ele>
        <time>2024-03-24T08:51:17.000Z</time>
      </trkpt>
      <trkpt lat="-37.864234" lon="144.972111">
        <ele>10.962981</ele>
        <time>2024-03-24T08:51:19.000Z</time>
      </trkpt>
      <trkpt lat="-37.863831" lon="144.972077">
        <ele>11.556132</ele>
        <time>2024-03-24T08:51:23.000Z</time>
      </trkpt>
      <trkpt lat="-37.862996" lon="144.972212">
        <ele>12.04251</ele>
        <time>2024-03-24T08:51:32.000Z</time>
      </trkpt>
      <trkpt lat="-37.862858" lon="144.972254">
        <ele>12.104449</ele>
        <time>2024-03-24T08:51:34.000Z</time>
      </trkpt>
      <trkpt lat="-37.862656" lon="144.972366">
        <ele>12.203721</ele>
        <time>2024-03-24T08:51:36.000Z</time>
      </trkpt>
      <trkpt lat="-37.862285" lon="144.972637">
        <ele>12.399995</ele>
        <time>2024-03-24T08:51:41.000Z</time>
      </trkpt>
      <trkpt lat="-37.862022" lon="144.972719">
        <ele>12.522299</ele>
        <time>2024-03-24T08:51:44.000Z</time>
      </trkpt>
      <trkpt lat="-37.861578" lon="144.972693">
        <ele>12.348139</ele>
        <time>2024-03-24T08:51:49.000Z</time>
      </trkpt>
      <trkpt lat="-37.861471" lon="144.97267">
        <ele>12.305918</ele>
        <time>2024-03-24T08:51:50.000Z</time>
      </trkpt>
      <trkpt lat="-37.861346" lon="144.97262">
        <ele>12.260217</ele>
        <time>2024-03-24T08:51:51.000Z</time>
      </trkpt>
      <trkpt lat="-37.86087" lon="144.972377">
        <ele>12.059563</ele>
        <time>2024-03-24T08:51:57.000Z</time>
      </trkpt>
      <trkpt lat="-37.860169" lon="144.971702">
        <ele>11.598132</ele>
        <time>2024-03-24T08:52:07.000Z</time>
      </trkpt>
      <trkpt lat="-37.860169" lon="144.971699">
        <ele>11.59709</ele>
        <time>2024-03-24T08:52:07.000Z</time>
      </trkpt>
      <trkpt lat="-37.860162" lon="144.971705">
        <ele>11.592904</ele>
        <time>2024-03-24T08:52:07.000Z</time>
      </trkpt>
      <trkpt lat="-37.86" lon="144.971545">
        <ele>11.418763</ele>
        <time>2024-03-24T08:52:09.000Z</time>
      </trkpt>
      <trkpt lat="-37.859721" lon="144.971277">
        <ele>11.129543</ele>
        <time>2024-03-24T08:52:13.000Z</time>
      </trkpt>
      <trkpt lat="-37.859423" lon="144.970885">
        <ele>10.794785</ele>
        <time>2024-03-24T08:52:18.000Z</time>
      </trkpt>
      <trkpt lat="-37.859002" lon="144.970147">
        <ele>10.053802</ele>
        <time>2024-03-24T08:52:26.000Z</time>
      </trkpt>
      <trkpt lat="-37.858855" lon="144.96987">
        <ele>9.660034</ele>
        <time>2024-03-24T08:52:29.000Z</time>
      </trkpt>
      <trkpt lat="-37.858748" lon="144.969666">
        <ele>9.351785</ele>
        <time>2024-03-24T08:52:31.000Z</time>
      </trkpt>
      <trkpt lat="-37.858665" lon="144.969565">
        <ele>9.176859</ele>
        <time>2024-03-24T08:52:32.000Z</time>
      </trkpt>
      <trkpt lat="-37.85863" lon="144.969489">
        <ele>9.077946</ele>
        <time>2024-03-24T08:52:33.000Z</time>
      </trkpt>
      <trkpt lat="-37.856833" lon="144.966293">
        <ele>4.387384</ele>
        <time>2024-03-24T08:53:07.000Z</time>
      </trkpt>
      <trkpt lat="-37.85683" lon="144.96629">
        <ele>4.382101</ele>
        <time>2024-03-24T08:53:07.000Z</time>
      </trkpt>
      <trkpt lat="-37.856809" lon="144.966274">
        <ele>4.366261</ele>
        <time>2024-03-24T08:53:07.000Z</time>
      </trkpt>
      <trkpt lat="-37.856267" lon="144.965305">
        <ele>3.646607</ele>
        <time>2024-03-24T08:53:17.000Z</time>
      </trkpt>
      <trkpt lat="-37.855807" lon="144.964485">
        <ele>3.31879</ele>
        <time>2024-03-24T08:53:26.000Z</time>
      </trkpt>
      <trkpt lat="-37.855232" lon="144.963492">
        <ele>3.550902</ele>
        <time>2024-03-24T08:53:37.000Z</time>
      </trkpt>
      <trkpt lat="-37.855235" lon="144.963489">
        <ele>3.552965</ele>
        <time>2024-03-24T08:53:37.000Z</time>
      </trkpt>
      <trkpt lat="-37.855234" lon="144.963477">
        <ele>3.554307</ele>
        <time>2024-03-24T08:53:37.000Z</time>
      </trkpt>
      <trkpt lat="-37.854835" lon="144.96279">
        <ele>3.754762</ele>
        <time>2024-03-24T08:53:44.000Z</time>
      </trkpt>
      <trkpt lat="-37.85445" lon="144.962119">
        <ele>4.080547</ele>
        <time>2024-03-24T08:53:51.000Z</time>
      </trkpt>
      <trkpt lat="-37.854032" lon="144.961321">
        <ele>4.454438</ele>
        <time>2024-03-24T08:53:59.000Z</time>
      </trkpt>
      <trkpt lat="-37.853574" lon="144.960361">
        <ele>4.712013</ele>
        <time>2024-03-24T08:54:09.000Z</time>
      </trkpt>
      <trkpt lat="-37.853546" lon="144.960333">
        <ele>4.71705</ele>
        <time>2024-03-24T08:54:09.000Z</time>
      </trkpt>
      <trkpt lat="-37.853543" lon="144.960323">
        <ele>4.718084</ele>
        <time>2024-03-24T08:54:09.000Z</time>
      </trkpt>
      <trkpt lat="-37.853228" lon="144.959662">
        <ele>4.848283</ele>
        <time>2024-03-24T08:54:16.000Z</time>
      </trkpt>
      <trkpt lat="-37.852981" lon="144.959161">
        <ele>4.948518</ele>
        <time>2024-03-24T08:54:21.000Z</time>
      </trkpt>
      <trkpt lat="-37.852984" lon="144.959153">
        <ele>4.94997</ele>
        <time>2024-03-24T08:54:21.000Z</time>
      </trkpt>
      <trkpt lat="-37.852964" lon="144.959104">
        <ele>4.953658</ele>
        <time>2024-03-24T08:54:21.000Z</time>
      </trkpt>
      <trkpt lat="-37.852789" lon="144.958751">
        <ele>4.898542</ele>
        <time>2024-03-24T08:54:25.000Z</time>
      </trkpt>
      <trkpt lat="-37.852602" lon="144.958373">
        <ele>4.837431</ele>
        <time>2024-03-24T08:54:29.000Z</time>
      </trkpt>
      <trkpt lat="-37.852571" lon="144.958334">
        <ele>4.831573</ele>
        <time>2024-03-24T08:54:29.000Z</time>
      </trkpt>
      <trkpt lat="-37.85257" lon="144.958283">
        <ele>4.825379</ele>
        <time>2024-03-24T08:54:29.000Z</time>
      </trkpt>
      <trkpt lat="-37.852426" lon="144.958005">
        <ele>4.780876</ele>
        <time>2024-03-24T08:54:32.000Z</time>
      </trkpt>
      <trkpt lat="-37.851898" lon="144.956947">
        <ele>4.685758</ele>
        <time>2024-03-24T08:54:43.000Z</time>
      </trkpt>
      <trkpt lat="-37.851908" lon="144.956943">
        <ele>4.686081</ele>
        <time>2024-03-24T08:54:43.000Z</time>
      </trkpt>
      <trkpt lat="-37.851888" lon="144.956892">
        <ele>4.693375</ele>
        <time>2024-03-24T08:54:43.000Z</time>
      </trkpt>
      <trkpt lat="-37.851627" lon="144.956344">
        <ele>4.777074</ele>
        <time>2024-03-24T08:54:49.000Z</time>
      </trkpt>
      <trkpt lat="-37.85126" lon="144.955614">
        <ele>4.891272</ele>
        <time>2024-03-24T08:54:57.000Z</time>
      </trkpt>
      <trkpt lat="-37.850816" lon="144.954693">
        <ele>5.012211</ele>
        <time>2024-03-24T08:55:06.000Z</time>
      </trkpt>
      <trkpt lat="-37.850541" lon="144.954151">
        <ele>5.07402</ele>
        <time>2024-03-24T08:55:12.000Z</time>
      </trkpt>
      <trkpt lat="-37.850537" lon="144.954125">
        <ele>5.075855</ele>
        <time>2024-03-24T08:55:12.000Z</time>
      </trkpt>
      <trkpt lat="-37.850532" lon="144.954094">
        <ele>5.078768</ele>
        <time>2024-03-24T08:55:12.000Z</time>
      </trkpt>
      <trkpt lat="-37.849802" lon="144.95262">
        <ele>4.899763</ele>
        <time>2024-03-24T08:55:27.000Z</time>
      </trkpt>
      <trkpt lat="-37.849654" lon="144.952311">
        <ele>4.77924</ele>
        <time>2024-03-24T08:55:30.000Z</time>
      </trkpt>
      <trkpt lat="-37.849442" lon="144.951861">
        <ele>4.596664</ele>
        <time>2024-03-24T08:55:35.000Z</time>
      </trkpt>
      <trkpt lat="-37.849279" lon="144.951542">
        <ele>4.468812</ele>
        <time>2024-03-24T08:55:38.000Z</time>
      </trkpt>
      <trkpt lat="-37.84922" lon="144.951411">
        <ele>4.418631</ele>
        <time>2024-03-24T08:55:39.000Z</time>
      </trkpt>
      <trkpt lat="-37.849157" lon="144.951286">
        <ele>4.429536</ele>
        <time>2024-03-24T08:55:40.000Z</time>
      </trkpt>
      <trkpt lat="-37.849045" lon="144.951328">
        <ele>4.478105</ele>
        <time>2024-03-24T08:55:41.000Z</time>
      </trkpt>
      <trkpt lat="-37.849126" lon="144.951503">
        <ele>4.553921</ele>
        <time>2024-03-24T08:55:43.000Z</time>
      </trkpt>
      <trkpt lat="-37.849184" lon="144.951641">
        <ele>4.603826</ele>
        <time>2024-03-24T08:55:44.000Z</time>
      </trkpt>
      <trkpt lat="-37.849803" lon="144.952922">
        <ele>5.127805</ele>
        <time>2024-03-24T08:55:57.000Z</time>
      </trkpt>
      <trkpt lat="-37.849815" lon="144.952929">
        <ele>5.131105</ele>
        <time>2024-03-24T08:55:57.000Z</time>
      </trkpt>
      <trkpt lat="-37.849815" lon="144.952936">
        <ele>5.134404</ele>
        <time>2024-03-24T08:55:57.000Z</time>
      </trkpt>
      <trkpt lat="-37.850714" lon="144.954761">
        <ele>5.569302</ele>
        <time>2024-03-24T08:56:16.000Z</time>
      </trkpt>
      <trkpt lat="-37.85113" lon="144.955604">
        <ele>5.696738</ele>
        <time>2024-03-24T08:56:25.000Z</time>
      </trkpt>
      <trkpt lat="-37.851526" lon="144.956436">
        <ele>5.798592</ele>
        <time>2024-03-24T08:56:34.000Z</time>
      </trkpt>
      <trkpt lat="-37.852322" lon="144.958093">
        <ele>6.064608</ele>
        <time>2024-03-24T08:56:51.000Z</time>
      </trkpt>
      <trkpt lat="-37.852669" lon="144.958774">
        <ele>6.187579</ele>
        <time>2024-03-24T08:56:58.000Z</time>
      </trkpt>
      <trkpt lat="-37.853132" lon="144.959741">
        <ele>6.210859</ele>
        <time>2024-03-24T08:57:08.000Z</time>
      </trkpt>
      <trkpt lat="-37.8538" lon="144.961126">
        <ele>6.148378</ele>
        <time>2024-03-24T08:57:22.000Z</time>
      </trkpt>
      <trkpt lat="-37.853824" lon="144.961147">
        <ele>6.14232</ele>
        <time>2024-03-24T08:57:22.000Z</time>
      </trkpt>
      <trkpt lat="-37.853814" lon="144.961153">
        <ele>6.141226</ele>
        <time>2024-03-24T08:57:22.000Z</time>
      </trkpt>
      <trkpt lat="-37.853947" lon="144.961407">
        <ele>6.083494</ele>
        <time>2024-03-24T08:57:25.000Z</time>
      </trkpt>
      <trkpt lat="-37.854287" lon="144.962113">
        <ele>5.917124</ele>
        <time>2024-03-24T08:57:32.000Z</time>
      </trkpt>
      <trkpt lat="-37.854675" lon="144.962918">
        <ele>5.786133</ele>
        <time>2024-03-24T08:57:40.000Z</time>
      </trkpt>
      <trkpt lat="-37.855571" lon="144.964684">
        <ele>6.008492</ele>
        <time>2024-03-24T08:57:58.000Z</time>
      </trkpt>
      <trkpt lat="-37.855951" lon="144.96542">
        <ele>6.58659</ele>
        <time>2024-03-24T08:58:06.000Z</time>
      </trkpt>
      <trkpt lat="-37.856523" lon="144.966493">
        <ele>7.442736</ele>
        <time>2024-03-24T08:58:17.000Z</time>
      </trkpt>
      <trkpt lat="-37.857834" lon="144.969018">
        <ele>10.428818</ele>
        <time>2024-03-24T08:58:44.000Z</time>
      </trkpt>
      <trkpt lat="-37.85786" lon="144.96908">
        <ele>10.470821</ele>
        <time>2024-03-24T08:58:45.000Z</time>
      </trkpt>
      <trkpt lat="-37.857941" lon="144.969199">
        <ele>10.568999</ele>
        <time>2024-03-24T08:58:46.000Z</time>
      </trkpt>
      <trkpt lat="-37.858074" lon="144.969465">
        <ele>10.768436</ele>
        <time>2024-03-24T08:58:49.000Z</time>
      </trkpt>
      <trkpt lat="-37.858192" lon="144.96971">
        <ele>10.957178</ele>
        <time>2024-03-24T08:58:52.000Z</time>
      </trkpt>
      <trkpt lat="-37.858249" lon="144.969828">
        <ele>11.038377</ele>
        <time>2024-03-24T08:58:53.000Z</time>
      </trkpt>
      <trkpt lat="-37.858273" lon="144.969855">
        <ele>11.062352</ele>
        <time>2024-03-24T08:58:53.000Z</time>
      </trkpt>
      <trkpt lat="-37.85827" lon="144.969871">
        <ele>11.069872</ele>
        <time>2024-03-24T08:58:53.000Z</time>
      </trkpt>
      <trkpt lat="-37.858341" lon="144.969976">
        <ele>11.15711</ele>
        <time>2024-03-24T08:58:54.000Z</time>
      </trkpt>
      <trkpt lat="-37.858566" lon="144.970305">
        <ele>11.437655</ele>
        <time>2024-03-24T08:58:58.000Z</time>
      </trkpt>
      <trkpt lat="-37.858617" lon="144.970337">
        <ele>11.469775</ele>
        <time>2024-03-24T08:58:59.000Z</time>
      </trkpt>
      <trkpt lat="-37.858608" lon="144.97033">
        <ele>11.471136</ele>
        <time>2024-03-24T08:58:59.000Z</time>
      </trkpt>
      <trkpt lat="-37.858631" lon="144.970338">
        <ele>11.474105</ele>
        <time>2024-03-24T08:58:59.000Z</time>
      </trkpt>
      <trkpt lat="-37.859659" lon="144.971389">
        <ele>11.793485</ele>
        <time>2024-03-24T08:59:14.000Z</time>
      </trkpt>
      <trkpt lat="-37.860289" lon="144.97198">
        <ele>11.993251</ele>
        <time>2024-03-24T08:59:23.000Z</time>
      </trkpt>
      <trkpt lat="-37.86103" lon="144.972626">
        <ele>12.224761</ele>
        <time>2024-03-24T08:59:33.000Z</time>
      </trkpt>
      <trkpt lat="-37.861329" lon="144.97274">
        <ele>12.310579</ele>
        <time>2024-03-24T08:59:36.000Z</time>
      </trkpt>
      <trkpt lat="-37.861447" lon="144.972777">
        <ele>12.341056</ele>
        <time>2024-03-24T08:59:37.000Z</time>
      </trkpt>
      <trkpt lat="-37.861573" lon="144.972816">
        <ele>12.372065</ele>
        <time>2024-03-24T08:59:38.000Z</time>
      </trkpt>
      <trkpt lat="-37.861964" lon="144.972841">
        <ele>12.336071</ele>
        <time>2024-03-24T08:59:42.000Z</time>
      </trkpt>
      <trkpt lat="-37.862271" lon="144.972776">
        <ele>12.303668</ele>
        <time>2024-03-24T08:59:45.000Z</time>
      </trkpt>
      <trkpt lat="-37.862662" lon="144.972512">
        <ele>12.259818</ele>
        <time>2024-03-24T08:59:50.000Z</time>
      </trkpt>
      <trkpt lat="-37.862879" lon="144.972351">
        <ele>12.234261</ele>
        <time>2024-03-24T08:59:53.000Z</time>
      </trkpt>
      <trkpt lat="-37.863128" lon="144.972264">
        <ele>12.207617</ele>
        <time>2024-03-24T08:59:56.000Z</time>
      </trkpt>
      <trkpt lat="-37.863831" lon="144.972168">
        <ele>11.671054</ele>
        <time>2024-03-24T09:00:04.000Z</time>
      </trkpt>
      <trkpt lat="-37.864276" lon="144.972219">
        <ele>11.249507</ele>
        <time>2024-03-24T09:00:09.000Z</time>
      </trkpt>
      <trkpt lat="-37.865023" lon="144.972686">
        <ele>10.466203</ele>
        <time>2024-03-24T09:00:18.000Z</time>
      </trkpt>
      <trkpt lat="-37.865252" lon="144.972922">
        <ele>10.183539</ele>
        <time>2024-03-24T09:00:21.000Z</time>
      </trkpt>
      <trkpt lat="-37.865761" lon="144.973653">
        <ele>9.453803</ele>
        <time>2024-03-24T09:00:30.000Z</time>
      </trkpt>
      <trkpt lat="-37.865899" lon="144.973787">
        <ele>9.292739</ele>
        <time>2024-03-24T09:00:32.000Z</time>
      </trkpt>
      <trkpt lat="-37.865971" lon="144.973886">
        <ele>9.193067</ele>
        <time>2024-03-24T09:00:33.000Z</time>
      </trkpt>
      <trkpt lat="-37.866267" lon="144.974107">
        <ele>8.87082</ele>
        <time>2024-03-24T09:00:37.000Z</time>
      </trkpt>
      <trkpt lat="-37.866349" lon="144.974167">
        <ele>8.790498</ele>
        <time>2024-03-24T09:00:38.000Z</time>
      </trkpt>
      <trkpt lat="-37.866447" lon="144.974224">
        <ele>8.744727</ele>
        <time>2024-03-24T09:00:39.000Z</time>
      </trkpt>
      <trkpt lat="-37.866682" lon="144.974342">
        <ele>8.639257</ele>
        <time>2024-03-24T09:00:42.000Z</time>
      </trkpt>
      <trkpt lat="-37.866957" lon="144.974487">
        <ele>8.514639</ele>
        <time>2024-03-24T09:00:45.000Z</time>
      </trkpt>
      <trkpt lat="-37.867224" lon="144.974608">
        <ele>8.404281</ele>
        <time>2024-03-24T09:00:48.000Z</time>
      </trkpt>
      <trkpt lat="-37.867684" lon="144.974904">
        <ele>8.187025</ele>
        <time>2024-03-24T09:00:54.000Z</time>
      </trkpt>
      <trkpt lat="-37.868224" lon="144.975266">
        <ele>8.071598</ele>
        <time>2024-03-24T09:01:01.000Z</time>
      </trkpt>
      <trkpt lat="-37.868327" lon="144.975336">
        <ele>8.077433</ele>
        <time>2024-03-24T09:01:02.000Z</time>
      </trkpt>
      <trkpt lat="-37.868645" lon="144.975545">
        <ele>8.092995</ele>
        <time>2024-03-24T09:01:06.000Z</time>
      </trkpt>
      <trkpt lat="-37.868708" lon="144.975589">
        <ele>8.096965</ele>
        <time>2024-03-24T09:01:07.000Z</time>
      </trkpt>
      <trkpt lat="-37.868797" lon="144.975639">
        <ele>8.100922</ele>
        <time>2024-03-24T09:01:08.000Z</time>
      </trkpt>
      <trkpt lat="-37.86889" lon="144.975698">
        <ele>8.105411</ele>
        <time>2024-03-24T09:01:09.000Z</time>
      </trkpt>
      <trkpt lat="-37.869152" lon="144.975861">
        <ele>8.119107</ele>
        <time>2024-03-24T09:01:12.000Z</time>
      </trkpt>
      <trkpt lat="-37.869337" lon="144.975978">
        <ele>8.12824</ele>
        <time>2024-03-24T09:01:14.000Z</time>
      </trkpt>
      <trkpt lat="-37.869413" lon="144.976025">
        <ele>8.132533</ele>
        <time>2024-03-24T09:01:15.000Z</time>
      </trkpt>
      <trkpt lat="-37.869608" lon="144.976111">
        <ele>8.130806</ele>
        <time>2024-03-24T09:01:17.000Z</time>
      </trkpt>
      <trkpt lat="-37.869738" lon="144.976155">
        <ele>8.078062</ele>
        <time>2024-03-24T09:01:18.000Z</time>
      </trkpt>
      <trkpt lat="-37.870557" lon="144.976276">
        <ele>7.783097</ele>
        <time>2024-03-24T09:01:27.000Z</time>
      </trkpt>
      <trkpt lat="-37.871196" lon="144.976368">
        <ele>7.552168</ele>
        <time>2024-03-24T09:01:34.000Z</time>
      </trkpt>
      <trkpt lat="-37.871226" lon="144.976373">
        <ele>7.539865</ele>
        <time>2024-03-24T09:01:34.000Z</time>
      </trkpt>
      <trkpt lat="-37.871235" lon="144.976368">
        <ele>7.539411</ele>
        <time>2024-03-24T09:01:34.000Z</time>
      </trkpt>
      <trkpt lat="-37.87189" lon="144.976453">
        <ele>7.229682</ele>
        <time>2024-03-24T09:01:41.000Z</time>
      </trkpt>
      <trkpt lat="-37.871995" lon="144.976479">
        <ele>7.172144</ele>
        <time>2024-03-24T09:01:42.000Z</time>
      </trkpt>
      <trkpt lat="-37.872106" lon="144.976478">
        <ele>7.123242</ele>
        <time>2024-03-24T09:01:43.000Z</time>
      </trkpt>
      <trkpt lat="-37.87299" lon="144.976608">
        <ele>6.683316</ele>
        <time>2024-03-24T09:01:53.000Z</time>
      </trkpt>
      <trkpt lat="-37.873018" lon="144.976602">
        <ele>6.667332</ele>
        <time>2024-03-24T09:01:53.000Z</time>
      </trkpt>
      <trkpt lat="-37.874059" lon="144.97675">
        <ele>6.378901</ele>
        <time>2024-03-24T09:02:05.000Z</time>
      </trkpt>
      <trkpt lat="-37.874501" lon="144.976815">
        <ele>6.273399</ele>
        <time>2024-03-24T09:02:10.000Z</time>
      </trkpt>
      <trkpt lat="-37.874862" lon="144.97686">
        <ele>6.188499</ele>
        <time>2024-03-24T09:02:14.000Z</time>
      </trkpt>
      <trkpt lat="-37.874948" lon="144.976869">
        <ele>6.166966</ele>
        <time>2024-03-24T09:02:15.000Z</time>
      </trkpt>
      <trkpt lat="-37.875206" lon="144.976904">
        <ele>6.134539</ele>
        <time>2024-03-24T09:02:18.000Z</time>
      </trkpt>
      <trkpt lat="-37.875285" lon="144.97692">
        <ele>6.125611</ele>
        <time>2024-03-24T09:02:19.000Z</time>
      </trkpt>
      <trkpt lat="-37.875339" lon="144.976935">
        <ele>6.116918</ele>
        <time>2024-03-24T09:02:20.000Z</time>
      </trkpt>
      <trkpt lat="-37.875416" lon="144.976948">
        <ele>6.107598</ele>
        <time>2024-03-24T09:02:21.000Z</time>
      </trkpt>
      <trkpt lat="-37.87625" lon="144.977062">
        <ele>6.001696</ele>
        <time>2024-03-24T09:02:30.000Z</time>
      </trkpt>
      <trkpt lat="-37.876279" lon="144.977064">
        <ele>5.998115</ele>
        <time>2024-03-24T09:02:30.000Z</time>
      </trkpt>
      <trkpt lat="-37.877103" lon="144.977168">
        <ele>5.853841</ele>
        <time>2024-03-24T09:02:39.000Z</time>
      </trkpt>
      <trkpt lat="-37.878711" lon="144.977394">
        <ele>5.465058</ele>
        <time>2024-03-24T09:02:57.000Z</time>
      </trkpt>
      <trkpt lat="-37.878899" lon="144.977411">
        <ele>5.398438</ele>
        <time>2024-03-24T09:02:59.000Z</time>
      </trkpt>
      <trkpt lat="-37.878944" lon="144.977418">
        <ele>5.38002</ele>
        <time>2024-03-24T09:03:00.000Z</time>
      </trkpt>
      <trkpt lat="-37.879771" lon="144.977538">
        <ele>5.086222</ele>
        <time>2024-03-24T09:03:09.000Z</time>
      </trkpt>
      <trkpt lat="-37.87991" lon="144.977553">
        <ele>5.039879</ele>
        <time>2024-03-24T09:03:11.000Z</time>
      </trkpt>
      <trkpt lat="-37.880064" lon="144.977577">
        <ele>4.982425</ele>
        <time>2024-03-24T09:03:13.000Z</time>
      </trkpt>
      <trkpt lat="-37.880222" lon="144.977617">
        <ele>4.925386</ele>
        <time>2024-03-24T09:03:15.000Z</time>
      </trkpt>
      <trkpt lat="-37.880631" lon="144.977662">
        <ele>5.137134</ele>
        <time>2024-03-24T09:03:20.000Z</time>
      </trkpt>
      <trkpt lat="-37.880717" lon="144.977684">
        <ele>5.193593</ele>
        <time>2024-03-24T09:03:21.000Z</time>
      </trkpt>
      <trkpt lat="-37.88105" lon="144.977727">
        <ele>5.428479</ele>
        <time>2024-03-24T09:03:25.000Z</time>
      </trkpt>
      <trkpt lat="-37.881237" lon="144.977754">
        <ele>5.559709</ele>
        <time>2024-03-24T09:03:27.000Z</time>
      </trkpt>
      <trkpt lat="-37.881318" lon="144.97777">
        <ele>5.621364</ele>
        <time>2024-03-24T09:03:28.000Z</time>
      </trkpt>
      <trkpt lat="-37.881686" lon="144.977881">
        <ele>5.880357</ele>
        <time>2024-03-24T09:03:32.000Z</time>
      </trkpt>
      <trkpt lat="-37.881825" lon="144.97795">
        <ele>5.986889</ele>
        <time>2024-03-24T09:03:34.000Z</time>
      </trkpt>
      <trkpt lat="-37.881884" lon="144.977979">
        <ele>6.036663</ele>
        <time>2024-03-24T09:03:35.000Z</time>
      </trkpt>
      <trkpt lat="-37.881997" lon="144.978029">
        <ele>6.117529</ele>
        <time>2024-03-24T09:03:36.000Z</time>
      </trkpt>
      <trkpt lat="-37.882211" lon="144.978147">
        <ele>6.270711</ele>
        <time>2024-03-24T09:03:39.000Z</time>
      </trkpt>
      <trkpt lat="-37.88222" lon="144.978152">
        <ele>6.273516</ele>
        <time>2024-03-24T09:03:39.000Z</time>
      </trkpt>
      <trkpt lat="-37.882217" lon="144.978153">
        <ele>6.276326</ele>
        <time>2024-03-24T09:03:39.000Z</time>
      </trkpt>
      <trkpt lat="-37.882289" lon="144.978193">
        <ele>6.324845</ele>
        <time>2024-03-24T09:03:40.000Z</time>
      </trkpt>
      <trkpt lat="-37.882443" lon="144.978283">
        <ele>6.442688</ele>
        <time>2024-03-24T09:03:42.000Z</time>
      </trkpt>
      <trkpt lat="-37.883004" lon="144.978707">
        <ele>6.863029</ele>
        <time>2024-03-24T09:03:49.000Z</time>
      </trkpt>
      <trkpt lat="-37.88308" lon="144.978761">
        <ele>6.914671</ele>
        <time>2024-03-24T09:03:50.000Z</time>
      </trkpt>
      <trkpt lat="-37.883281" lon="144.978914">
        <ele>7.072682</ele>
        <time>2024-03-24T09:03:53.000Z</time>
      </trkpt>
      <trkpt lat="-37.883407" lon="144.979007">
        <ele>7.170489</ele>
        <time>2024-03-24T09:03:55.000Z</time>
      </trkpt>
      <trkpt lat="-37.883921" lon="144.979398">
        <ele>7.286963</ele>
        <time>2024-03-24T09:04:02.000Z</time>
      </trkpt>
      <trkpt lat="-37.884482" lon="144.979936">
        <ele>7.18986</ele>
        <time>2024-03-24T09:04:10.000Z</time>
      </trkpt>
      <trkpt lat="-37.884816" lon="144.980284">
        <ele>7.128407</ele>
        <time>2024-03-24T09:04:15.000Z</time>
      </trkpt>
      <trkpt lat="-37.885329" lon="144.981072">
        <ele>7.212942</ele>
        <time>2024-03-24T09:04:24.000Z</time>
      </trkpt>
      <trkpt lat="-37.885468" lon="144.981305">
        <ele>7.274246</ele>
        <time>2024-03-24T09:04:27.000Z</time>
      </trkpt>
      <trkpt lat="-37.885769" lon="144.981778">
        <ele>7.400124</ele>
        <time>2024-03-24T09:04:32.000Z</time>
      </trkpt>
      <trkpt lat="-37.885991" lon="144.982148">
        <ele>7.498858</ele>
        <time>2024-03-24T09:04:36.000Z</time>
      </trkpt>
      <trkpt lat="-37.886033" lon="144.982225">
        <ele>7.518474</ele>
        <time>2024-03-24T09:04:37.000Z</time>
      </trkpt>
      <trkpt lat="-37.886309" lon="144.982696">
        <ele>7.481443</ele>
        <time>2024-03-24T09:04:42.000Z</time>
      </trkpt>
      <trkpt lat="-37.886395" lon="144.982821">
        <ele>7.446033</ele>
        <time>2024-03-24T09:04:43.000Z</time>
      </trkpt>
      <trkpt lat="-37.886596" lon="144.983149">
        <ele>7.362673</ele>
        <time>2024-03-24T09:04:47.000Z</time>
      </trkpt>
      <trkpt lat="-37.88687" lon="144.983618">
        <ele>7.241494</ele>
        <time>2024-03-24T09:04:52.000Z</time>
      </trkpt>
      <trkpt lat="-37.887046" lon="144.983896">
        <ele>7.171171</ele>
        <time>2024-03-24T09:04:55.000Z</time>
      </trkpt>
      <trkpt lat="-37.887127" lon="144.984043">
        <ele>7.13061</ele>
        <time>2024-03-24T09:04:57.000Z</time>
      </trkpt>
      <trkpt lat="-37.887183" lon="144.984124">
        <ele>7.111294</ele>
        <time>2024-03-24T09:04:58.000Z</time>
      </trkpt>
      <trkpt lat="-37.887252" lon="144.98424">
        <ele>7.068861</ele>
        <time>2024-03-24T09:04:59.000Z</time>
      </trkpt>
      <trkpt lat="-37.887399" lon="144.98449">
        <ele>6.915034</ele>
        <time>2024-03-24T09:05:02.000Z</time>
      </trkpt>
      <trkpt lat="-37.887424" lon="144.984503">
        <ele>6.896037</ele>
        <time>2024-03-24T09:05:02.000Z</time>
      </trkpt>
      <trkpt lat="-37.887457" lon="144.984566">
        <ele>6.867156</ele>
        <time>2024-03-24T09:05:03.000Z</time>
      </trkpt>
      <trkpt lat="-37.88752" lon="144.984681">
        <ele>6.793471</ele>
        <time>2024-03-24T09:05:04.000Z</time>
      </trkpt>
      <trkpt lat="-37.887561" lon="144.984745">
        <ele>6.754741</ele>
        <time>2024-03-24T09:05:05.000Z</time>
      </trkpt>
      <trkpt lat="-37.887708" lon="144.984961">
        <ele>6.616853</ele>
        <time>2024-03-24T09:05:08.000Z</time>
      </trkpt>
      <trkpt lat="-37.887988" lon="144.985418">
        <ele>6.336109</ele>
        <time>2024-03-24T09:05:13.000Z</time>
      </trkpt>
      <trkpt lat="-37.88811" lon="144.985645">
        <ele>6.198591</ele>
        <time>2024-03-24T09:05:15.000Z</time>
      </trkpt>
      <trkpt lat="-37.888111" lon="144.985647">
        <ele>6.197459</ele>
        <time>2024-03-24T09:05:15.000Z</time>
      </trkpt>
      <trkpt lat="-37.888144" lon="144.98568">
        <ele>6.176937</ele>
        <time>2024-03-24T09:05:15.000Z</time>
      </trkpt>
      <trkpt lat="-37.888132" lon="144.985698">
        <ele>6.175373</ele>
        <time>2024-03-24T09:05:15.000Z</time>
      </trkpt>
      <trkpt lat="-37.888255" lon="144.985881">
        <ele>6.059128</ele>
        <time>2024-03-24T09:05:17.000Z</time>
      </trkpt>
      <trkpt lat="-37.888525" lon="144.98633">
        <ele>6.095256</ele>
        <time>2024-03-24T09:05:22.000Z</time>
      </trkpt>
      <trkpt lat="-37.888796" lon="144.986808">
        <ele>6.240707</ele>
        <time>2024-03-24T09:05:27.000Z</time>
      </trkpt>
      <trkpt lat="-37.888845" lon="144.986868">
        <ele>6.258595</ele>
        <time>2024-03-24T09:05:28.000Z</time>
      </trkpt>
      <trkpt lat="-37.889022" lon="144.987155">
        <ele>6.350368</ele>
        <time>2024-03-24T09:05:31.000Z</time>
      </trkpt>
      <trkpt lat="-37.88908" lon="144.987252">
        <ele>6.380106</ele>
        <time>2024-03-24T09:05:32.000Z</time>
      </trkpt>
      <trkpt lat="-37.889354" lon="144.987711">
        <ele>6.525346</ele>
        <time>2024-03-24T09:05:37.000Z</time>
      </trkpt>
      <trkpt lat="-37.890319" lon="144.989306">
        <ele>7.956453</ele>
        <time>2024-03-24T09:05:55.000Z</time>
      </trkpt>
      <trkpt lat="-37.890857" lon="144.990196">
        <ele>8.248849</ele>
        <time>2024-03-24T09:06:05.000Z</time>
      </trkpt>
      <trkpt lat="-37.891058" lon="144.990503">
        <ele>8.246822</ele>
        <time>2024-03-24T09:06:09.000Z</time>
      </trkpt>
      <trkpt lat="-37.890858" lon="144.990209">
        <ele>8.244788</ele>
        <time>2024-03-24T09:06:12.000Z</time>
      </trkpt>
      <trkpt lat="-37.89031" lon="144.989299">
        <ele>7.96018</ele>
        <time>2024-03-24T09:06:22.000Z</time>
      </trkpt>
      <trkpt lat="-37.889353" lon="144.987711">
        <ele>6.516013</ele>
        <time>2024-03-24T09:06:40.000Z</time>
      </trkpt>
      <trkpt lat="-37.889069" lon="144.987253">
        <ele>6.376057</ele>
        <time>2024-03-24T09:06:45.000Z</time>
      </trkpt>
      <trkpt lat="-37.889022" lon="144.98715">
        <ele>6.347405</ele>
        <time>2024-03-24T09:06:46.000Z</time>
      </trkpt>
      <trkpt lat="-37.888835" lon="144.986854">
        <ele>6.258978</ele>
        <time>2024-03-24T09:06:49.000Z</time>
      </trkpt>
      <trkpt lat="-37.888801" lon="144.986811">
        <ele>6.241743</ele>
        <time>2024-03-24T09:06:50.000Z</time>
      </trkpt>
      <trkpt lat="-37.888517" lon="144.986342">
        <ele>6.101586</ele>
        <time>2024-03-24T09:06:55.000Z</time>
      </trkpt>
      <trkpt lat="-37.888258" lon="144.985879">
        <ele>6.054046</ele>
        <time>2024-03-24T09:07:00.000Z</time>
      </trkpt>
      <trkpt lat="-37.888142" lon="144.985694">
        <ele>6.171102</ele>
        <time>2024-03-24T09:07:02.000Z</time>
      </trkpt>
      <trkpt lat="-37.888142" lon="144.985681">
        <ele>6.172669</ele>
        <time>2024-03-24T09:07:02.000Z</time>
      </trkpt>
      <trkpt lat="-37.888116" lon="144.985661">
        <ele>6.193339</ele>
        <time>2024-03-24T09:07:02.000Z</time>
      </trkpt>
      <trkpt lat="-37.888116" lon="144.985653">
        <ele>6.194491</ele>
        <time>2024-03-24T09:07:02.000Z</time>
      </trkpt>
      <trkpt lat="-37.887987" lon="144.985419">
        <ele>6.33294</ele>
        <time>2024-03-24T09:07:05.000Z</time>
      </trkpt>
      <trkpt lat="-37.887704" lon="144.984971">
        <ele>6.61562</ele>
        <time>2024-03-24T09:07:10.000Z</time>
      </trkpt>
      <trkpt lat="-37.887569" lon="144.984739">
        <ele>6.754433</ele>
        <time>2024-03-24T09:07:13.000Z</time>
      </trkpt>
      <trkpt lat="-37.887531" lon="144.984676">
        <ele>6.793443</ele>
        <time>2024-03-24T09:07:14.000Z</time>
      </trkpt>
      <trkpt lat="-37.887459" lon="144.984562">
        <ele>6.867623</ele>
        <time>2024-03-24T09:07:15.000Z</time>
      </trkpt>
      <trkpt lat="-37.887427" lon="144.984503">
        <ele>6.896693</ele>
        <time>2024-03-24T09:07:16.000Z</time>
      </trkpt>
      <trkpt lat="-37.887401" lon="144.984482">
        <ele>6.915817</ele>
        <time>2024-03-24T09:07:16.000Z</time>
      </trkpt>
      <trkpt lat="-37.887248" lon="144.984233">
        <ele>7.0707</ele>
        <time>2024-03-24T09:07:19.000Z</time>
      </trkpt>
      <trkpt lat="-37.887176" lon="144.984111">
        <ele>7.118891</ele>
        <time>2024-03-24T09:07:20.000Z</time>
      </trkpt>
      <trkpt lat="-37.887134" lon="144.984042">
        <ele>7.137521</ele>
        <time>2024-03-24T09:07:21.000Z</time>
      </trkpt>
      <trkpt lat="-37.887035" lon="144.983881">
        <ele>7.176612</ele>
        <time>2024-03-24T09:07:23.000Z</time>
      </trkpt>
      <trkpt lat="-37.886878" lon="144.983618">
        <ele>7.244437</ele>
        <time>2024-03-24T09:07:26.000Z</time>
      </trkpt>
      <trkpt lat="-37.886592" lon="144.983153">
        <ele>7.361295</ele>
        <time>2024-03-24T09:07:31.000Z</time>
      </trkpt>
      <trkpt lat="-37.886397" lon="144.98282">
        <ele>7.441677</ele>
        <time>2024-03-24T09:07:35.000Z</time>
      </trkpt>
      <trkpt lat="-37.886314" lon="144.982695">
        <ele>7.475807</ele>
        <time>2024-03-24T09:07:36.000Z</time>
      </trkpt>
      <trkpt lat="-37.886041" lon="144.982238">
        <ele>7.510242</ele>
        <time>2024-03-24T09:07:41.000Z</time>
      </trkpt>
      <trkpt lat="-37.885983" lon="144.982154">
        <ele>7.486003</ele>
        <time>2024-03-24T09:07:42.000Z</time>
      </trkpt>
      <trkpt lat="-37.885768" lon="144.981772">
        <ele>7.363957</ele>
        <time>2024-03-24T09:07:46.000Z</time>
      </trkpt>
      <trkpt lat="-37.88548" lon="144.98129">
        <ele>7.208357</ele>
        <time>2024-03-24T09:07:51.000Z</time>
      </trkpt>
      <trkpt lat="-37.885329" lon="144.981057">
        <ele>7.132582</ele>
        <time>2024-03-24T09:07:54.000Z</time>
      </trkpt>
      <trkpt lat="-37.884816" lon="144.980275">
        <ele>6.991916</ele>
        <time>2024-03-24T09:08:03.000Z</time>
      </trkpt>
      <trkpt lat="-37.884796" lon="144.980165">
        <ele>6.999112</ele>
        <time>2024-03-24T09:08:04.000Z</time>
      </trkpt>
      <trkpt lat="-37.884658" lon="144.979966">
        <ele>7.016122</ele>
        <time>2024-03-24T09:08:06.000Z</time>
      </trkpt>
      <trkpt lat="-37.884567" lon="144.97986">
        <ele>7.025925</ele>
        <time>2024-03-24T09:08:07.000Z</time>
      </trkpt>
      <trkpt lat="-37.884027" lon="144.97931">
        <ele>7.080883</ele>
        <time>2024-03-24T09:08:15.000Z</time>
      </trkpt>
      <trkpt lat="-37.883148" lon="144.978635">
        <ele>6.815318</ele>
        <time>2024-03-24T09:08:26.000Z</time>
      </trkpt>
      <trkpt lat="-37.883117" lon="144.978614">
        <ele>6.801812</ele>
        <time>2024-03-24T09:08:26.000Z</time>
      </trkpt>
      <trkpt lat="-37.882927" lon="144.978447">
        <ele>6.694387</ele>
        <time>2024-03-24T09:08:29.000Z</time>
      </trkpt>
      <trkpt lat="-37.882926" lon="144.978448">
        <ele>6.693411</ele>
        <time>2024-03-24T09:08:29.000Z</time>
      </trkpt>
      <trkpt lat="-37.882595" lon="144.978206">
        <ele>6.518429</ele>
        <time>2024-03-24T09:08:33.000Z</time>
      </trkpt>
      <trkpt lat="-37.882331" lon="144.978029">
        <ele>6.38072</ele>
        <time>2024-03-24T09:08:36.000Z</time>
      </trkpt>
      <trkpt lat="-37.882042" lon="144.97788">
        <ele>6.264656</ele>
        <time>2024-03-24T09:08:39.000Z</time>
      </trkpt>
      <trkpt lat="-37.881923" lon="144.977818">
        <ele>6.236523</ele>
        <time>2024-03-24T09:08:40.000Z</time>
      </trkpt>
      <trkpt lat="-37.881885" lon="144.977803">
        <ele>6.225741</ele>
        <time>2024-03-24T09:08:40.000Z</time>
      </trkpt>
      <trkpt lat="-37.88181" lon="144.97777">
        <ele>6.207798</ele>
        <time>2024-03-24T09:08:41.000Z</time>
      </trkpt>
      <trkpt lat="-37.881768" lon="144.977738">
        <ele>6.197523</ele>
        <time>2024-03-24T09:08:42.000Z</time>
      </trkpt>
      <trkpt lat="-37.881219" lon="144.977575">
        <ele>6.067499</ele>
        <time>2024-03-24T09:08:48.000Z</time>
      </trkpt>
      <trkpt lat="-37.880727" lon="144.977515">
        <ele>5.954075</ele>
        <time>2024-03-24T09:08:53.000Z</time>
      </trkpt>
      <trkpt lat="-37.880824" lon="144.977199">
        <ele>5.892891</ele>
        <time>2024-03-24T09:08:56.000Z</time>
      </trkpt>
      <trkpt lat="-37.881171" lon="144.976986">
        <ele>6.030882</ele>
        <time>2024-03-24T09:09:00.000Z</time>
      </trkpt>
      <trkpt lat="-37.881453" lon="144.9769">
        <ele>6.182057</ele>
        <time>2024-03-24T09:09:03.000Z</time>
      </trkpt>
      <trkpt lat="-37.88178" lon="144.976911">
        <ele>6.342216</ele>
        <time>2024-03-24T09:09:07.000Z</time>
      </trkpt>
      <trkpt lat="-37.882082" lon="144.977062">
        <ele>6.509432</ele>
        <time>2024-03-24T09:09:11.000Z</time>
      </trkpt>
      <trkpt lat="-37.88272" lon="144.977808">
        <ele>6.817187</ele>
        <time>2024-03-24T09:09:21.000Z</time>
      </trkpt>
      <trkpt lat="-37.883185" lon="144.978145">
        <ele>6.85022</ele>
        <time>2024-03-24T09:09:27.000Z</time>
      </trkpt>
      <trkpt lat="-37.883266" lon="144.978195">
        <ele>6.855728</ele>
        <time>2024-03-24T09:09:28.000Z</time>
      </trkpt>
      <trkpt lat="-37.883744" lon="144.978483">
        <ele>6.887411</ele>
        <time>2024-03-24T09:09:34.000Z</time>
      </trkpt>
      <trkpt lat="-37.88327" lon="144.978194">
        <ele>6.858892</ele>
        <time>2024-03-24T09:09:40.000Z</time>
      </trkpt>
      <trkpt lat="-37.883185" lon="144.978151">
        <ele>6.834274</ele>
        <time>2024-03-24T09:09:41.000Z</time>
      </trkpt>
      <trkpt lat="-37.882704" lon="144.977811">
        <ele>6.686941</ele>
        <time>2024-03-24T09:09:47.000Z</time>
      </trkpt>
      <trkpt lat="-37.882087" lon="144.977058">
        <ele>6.450899</ele>
        <time>2024-03-24T09:09:57.000Z</time>
      </trkpt>
      <trkpt lat="-37.881775" lon="144.976915">
        <ele>6.27085</ele>
        <time>2024-03-24T09:10:01.000Z</time>
      </trkpt>
      <trkpt lat="-37.881466" lon="144.976894">
        <ele>6.049744</ele>
        <time>2024-03-24T09:10:04.000Z</time>
      </trkpt>
      <trkpt lat="-37.881168" lon="144.976969">
        <ele>5.841011</ele>
        <time>2024-03-24T09:10:07.000Z</time>
      </trkpt>
      <trkpt lat="-37.880822" lon="144.97719">
        <ele>5.565179</ele>
        <time>2024-03-24T09:10:11.000Z</time>
      </trkpt>
      <trkpt lat="-37.880682" lon="144.977303">
        <ele>5.452322</ele>
        <time>2024-03-24T09:10:13.000Z</time>
      </trkpt>
      <trkpt lat="-37.880652" lon="144.977511">
        <ele>5.331983</ele>
        <time>2024-03-24T09:10:15.000Z</time>
      </trkpt>
      <trkpt lat="-37.880448" lon="144.977475">
        <ele>5.192311</ele>
        <time>2024-03-24T09:10:17.000Z</time>
      </trkpt>
      <trkpt lat="-37.880437" lon="144.977483">
        <ele>5.185188</ele>
        <time>2024-03-24T09:10:17.000Z</time>
      </trkpt>
      <trkpt lat="-37.880449" lon="144.977474">
        <ele>5.182358</ele>
        <time>2024-03-24T09:10:17.000Z</time>
      </trkpt>
      <trkpt lat="-37.880266" lon="144.977471">
        <ele>5.155765</ele>
        <time>2024-03-24T09:10:19.000Z</time>
      </trkpt>
      <trkpt lat="-37.879043" lon="144.977305">
        <ele>5.288983</ele>
        <time>2024-03-24T09:10:33.000Z</time>
      </trkpt>
      <trkpt lat="-37.878957" lon="144.977296">
        <ele>5.299319</ele>
        <time>2024-03-24T09:10:34.000Z</time>
      </trkpt>
      <trkpt lat="-37.878912" lon="144.977286">
        <ele>5.304938</ele>
        <time>2024-03-24T09:10:35.000Z</time>
      </trkpt>
      <trkpt lat="-37.878721" lon="144.977264">
        <ele>5.325712</ele>
        <time>2024-03-24T09:10:37.000Z</time>
      </trkpt>
      <trkpt lat="-37.877122" lon="144.977044">
        <ele>5.628387</ele>
        <time>2024-03-24T09:10:55.000Z</time>
      </trkpt>
      <trkpt lat="-37.876271" lon="144.976926">
        <ele>5.751402</ele>
        <time>2024-03-24T09:11:05.000Z</time>
      </trkpt>
      <trkpt lat="-37.876247" lon="144.97693">
        <ele>5.754971</ele>
        <time>2024-03-24T09:11:05.000Z</time>
      </trkpt>
      <trkpt lat="-37.876171" lon="144.976915">
        <ele>5.76263</ele>
        <time>2024-03-24T09:11:06.000Z</time>
      </trkpt>
      <trkpt lat="-37.875873" lon="144.976883">
        <ele>5.796402</ele>
        <time>2024-03-24T09:11:09.000Z</time>
      </trkpt>
      <trkpt lat="-37.875717" lon="144.976858">
        <ele>5.816044</ele>
        <time>2024-03-24T09:11:11.000Z</time>
      </trkpt>
      <trkpt lat="-37.875694" lon="144.976848">
        <ele>5.817197</ele>
        <time>2024-03-24T09:11:11.000Z</time>
      </trkpt>
      <trkpt lat="-37.875646" lon="144.976839">
        <ele>5.824489</ele>
        <time>2024-03-24T09:11:12.000Z</time>
      </trkpt>
      <trkpt lat="-37.875493" lon="144.976824">
        <ele>5.842159</ele>
        <time>2024-03-24T09:11:14.000Z</time>
      </trkpt>
      <trkpt lat="-37.875393" lon="144.976812">
        <ele>5.851871</ele>
        <time>2024-03-24T09:11:15.000Z</time>
      </trkpt>
      <trkpt lat="-37.875305" lon="144.976807">
        <ele>5.862149</ele>
        <time>2024-03-24T09:11:16.000Z</time>
      </trkpt>
      <trkpt lat="-37.875212" lon="144.97678">
        <ele>5.873506</ele>
        <time>2024-03-24T09:11:17.000Z</time>
      </trkpt>
      <trkpt lat="-37.873941" lon="144.976616">
        <ele>6.158045</ele>
        <time>2024-03-24T09:11:31.000Z</time>
      </trkpt>
      <trkpt lat="-37.873933" lon="144.976618">
        <ele>6.159996</ele>
        <time>2024-03-24T09:11:31.000Z</time>
      </trkpt>
      <trkpt lat="-37.873932" lon="144.976604">
        <ele>6.16097</ele>
        <time>2024-03-24T09:11:31.000Z</time>
      </trkpt>
      <trkpt lat="-37.873134" lon="144.976504">
        <ele>6.378923</ele>
        <time>2024-03-24T09:11:40.000Z</time>
      </trkpt>
      <trkpt lat="-37.873028" lon="144.976487">
        <ele>6.428414</ele>
        <time>2024-03-24T09:11:41.000Z</time>
      </trkpt>
      <trkpt lat="-37.872115" lon="144.976366">
        <ele>6.853051</ele>
        <time>2024-03-24T09:11:51.000Z</time>
      </trkpt>
      <trkpt lat="-37.872041" lon="144.976358">
        <ele>6.883405</ele>
        <time>2024-03-24T09:11:52.000Z</time>
      </trkpt>
      <trkpt lat="-37.871894" lon="144.97635">
        <ele>6.951005</ele>
        <time>2024-03-24T09:11:54.000Z</time>
      </trkpt>
      <trkpt lat="-37.871659" lon="144.976313">
        <ele>7.067703</ele>
        <time>2024-03-24T09:11:57.000Z</time>
      </trkpt>
      <trkpt lat="-37.871214" lon="144.976243">
        <ele>7.243983</ele>
        <time>2024-03-24T09:12:02.000Z</time>
      </trkpt>
      <trkpt lat="-37.871215" lon="144.97624">
        <ele>7.244672</ele>
        <time>2024-03-24T09:12:02.000Z</time>
      </trkpt>
      <trkpt lat="-37.870564" lon="144.97616">
        <ele>7.467698</ele>
        <time>2024-03-24T09:12:09.000Z</time>
      </trkpt>
      <trkpt lat="-37.869816" lon="144.976043">
        <ele>7.729327</ele>
        <time>2024-03-24T09:12:17.000Z</time>
      </trkpt>
      <trkpt lat="-37.869464" lon="144.975903">
        <ele>7.78012</ele>
        <time>2024-03-24T09:12:21.000Z</time>
      </trkpt>
      <trkpt lat="-37.869212" lon="144.975756">
        <ele>7.773141</ele>
        <time>2024-03-24T09:12:24.000Z</time>
      </trkpt>
      <trkpt lat="-37.868922" lon="144.975561">
        <ele>7.764363</ele>
        <time>2024-03-24T09:12:28.000Z</time>
      </trkpt>
      <trkpt lat="-37.868845" lon="144.975529">
        <ele>7.762349</ele>
        <time>2024-03-24T09:12:29.000Z</time>
      </trkpt>
      <trkpt lat="-37.868783" lon="144.975473">
        <ele>7.760042</ele>
        <time>2024-03-24T09:12:30.000Z</time>
      </trkpt>
      <trkpt lat="-37.868718" lon="144.975423">
        <ele>7.758317</ele>
        <time>2024-03-24T09:12:31.000Z</time>
      </trkpt>
      <trkpt lat="-37.867679" lon="144.974783">
        <ele>7.789386</ele>
        <time>2024-03-24T09:12:44.000Z</time>
      </trkpt>
      <trkpt lat="-37.867289" lon="144.974554">
        <ele>7.842527</ele>
        <time>2024-03-24T09:12:49.000Z</time>
      </trkpt>
      <trkpt lat="-37.867279" lon="144.974545">
        <ele>7.844616</ele>
        <time>2024-03-24T09:12:49.000Z</time>
      </trkpt>
      <trkpt lat="-37.866999" lon="144.97438">
        <ele>7.883213</ele>
        <time>2024-03-24T09:12:52.000Z</time>
      </trkpt>
      <trkpt lat="-37.866794" lon="144.974259">
        <ele>7.911804</ele>
        <time>2024-03-24T09:12:55.000Z</time>
      </trkpt>
      <trkpt lat="-37.866637" lon="144.974147">
        <ele>7.935903</ele>
        <time>2024-03-24T09:12:57.000Z</time>
      </trkpt>
      <trkpt lat="-37.86642" lon="144.974022">
        <ele>7.965629</ele>
        <time>2024-03-24T09:13:00.000Z</time>
      </trkpt>
      <trkpt lat="-37.866331" lon="144.973978">
        <ele>8.050589</ele>
        <time>2024-03-24T09:13:01.000Z</time>
      </trkpt>
      <trkpt lat="-37.866307" lon="144.97395">
        <ele>8.087891</ele>
        <time>2024-03-24T09:13:01.000Z</time>
      </trkpt>
      <trkpt lat="-37.865821" lon="144.973572">
        <ele>8.625337</ele>
        <time>2024-03-24T09:13:07.000Z</time>
      </trkpt>
      <trkpt lat="-37.865479" lon="144.973106">
        <ele>9.106591</ele>
        <time>2024-03-24T09:13:13.000Z</time>
      </trkpt>
      <trkpt lat="-37.865446" lon="144.973044">
        <ele>9.168305</ele>
        <time>2024-03-24T09:13:14.000Z</time>
      </trkpt>
      <trkpt lat="-37.865207" lon="144.972735">
        <ele>9.48528</ele>
        <time>2024-03-24T09:13:18.000Z</time>
      </trkpt>
      <trkpt lat="-37.865014" lon="144.972567">
        <ele>9.730651</ele>
        <time>2024-03-24T09:13:21.000Z</time>
      </trkpt>
      <trkpt lat="-37.864374" lon="144.972154">
        <ele>10.686038</ele>
        <time>2024-03-24T09:13:29.000Z</time>
      </trkpt>
      <trkpt lat="-37.864234" lon="144.972119">
        <ele>10.880994</ele>
        <time>2024-03-24T09:13:31.000Z</time>
      </trkpt>
      <trkpt lat="-37.863828" lon="144.972084">
        <ele>11.435535</ele>
        <time>2024-03-24T09:13:36.000Z</time>
      </trkpt>
      <trkpt lat="-37.862995" lon="144.972202">
        <ele>12.170045</ele>
        <time>2024-03-24T09:13:45.000Z</time>
      </trkpt>
      <trkpt lat="-37.862855" lon="144.972243">
        <ele>12.191368</ele>
        <time>2024-03-24T09:13:47.000Z</time>
      </trkpt>
      <trkpt lat="-37.862654" lon="144.972383">
        <ele>12.225525</ele>
        <time>2024-03-24T09:13:50.000Z</time>
      </trkpt>
      <trkpt lat="-37.862282" lon="144.972635">
        <ele>12.293073</ele>
        <time>2024-03-24T09:13:55.000Z</time>
      </trkpt>
      <trkpt lat="-37.862015" lon="144.972719">
        <ele>12.335582</ele>
        <time>2024-03-24T09:13:58.000Z</time>
      </trkpt>
      <trkpt lat="-37.861581" lon="144.972687">
        <ele>12.375309</ele>
        <time>2024-03-24T09:14:03.000Z</time>
      </trkpt>
      <trkpt lat="-37.861464" lon="144.972674">
        <ele>12.327145</ele>
        <time>2024-03-24T09:14:04.000Z</time>
      </trkpt>
      <trkpt lat="-37.861342" lon="144.97263">
        <ele>12.27499</ele>
        <time>2024-03-24T09:14:05.000Z</time>
      </trkpt>
      <trkpt lat="-37.860869" lon="144.97237">
        <ele>12.046014</ele>
        <time>2024-03-24T09:14:11.000Z</time>
      </trkpt>
      <trkpt lat="-37.86017" lon="144.971701">
        <ele>11.658166</ele>
        <time>2024-03-24T09:14:21.000Z</time>
      </trkpt>
      <trkpt lat="-37.860172" lon="144.971702">
        <ele>11.657599</ele>
        <time>2024-03-24T09:14:21.000Z</time>
      </trkpt>
      <trkpt lat="-37.860159" lon="144.971705">
        <ele>11.65535</ele>
        <time>2024-03-24T09:14:21.000Z</time>
      </trkpt>
      <trkpt lat="-37.859988" lon="144.971537">
        <ele>11.507802</ele>
        <time>2024-03-24T09:14:23.000Z</time>
      </trkpt>
      <trkpt lat="-37.859713" lon="144.971262">
        <ele>11.15837</ele>
        <time>2024-03-24T09:14:27.000Z</time>
      </trkpt>
      <trkpt lat="-37.859433" lon="144.970902">
        <ele>10.753882</ele>
        <time>2024-03-24T09:14:31.000Z</time>
      </trkpt>
      <trkpt lat="-37.859011" lon="144.970137">
        <ele>10.028265</ele>
        <time>2024-03-24T09:14:39.000Z</time>
      </trkpt>
      <trkpt lat="-37.858849" lon="144.969871">
        <ele>9.746792</ele>
        <time>2024-03-24T09:14:42.000Z</time>
      </trkpt>
      <trkpt lat="-37.858731" lon="144.969679">
        <ele>9.422996</ele>
        <time>2024-03-24T09:14:44.000Z</time>
      </trkpt>
      <trkpt lat="-37.858681" lon="144.969565">
        <ele>9.239242</ele>
        <time>2024-03-24T09:14:45.000Z</time>
      </trkpt>
      <trkpt lat="-37.858632" lon="144.96949">
        <ele>9.135353</ele>
        <time>2024-03-24T09:14:46.000Z</time>
      </trkpt>
      <trkpt lat="-37.856821" lon="144.966287">
        <ele>4.241071</ele>
        <time>2024-03-24T09:15:21.000Z</time>
      </trkpt>
      <trkpt lat="-37.856812" lon="144.966292">
        <ele>4.230593</ele>
        <time>2024-03-24T09:15:21.000Z</time>
      </trkpt>
      <trkpt lat="-37.856804" lon="144.966265">
        <ele>4.199179</ele>
        <time>2024-03-24T09:15:21.000Z</time>
      </trkpt>
      <trkpt lat="-37.856263" lon="144.965311">
        <ele>3.689368</ele>
        <time>2024-03-24T09:15:31.000Z</time>
      </trkpt>
      <trkpt lat="-37.855802" lon="144.964501">
        <ele>3.291135</ele>
        <time>2024-03-24T09:15:40.000Z</time>
      </trkpt>
      <trkpt lat="-37.855236" lon="144.963494">
        <ele>3.538657</ele>
        <time>2024-03-24T09:15:51.000Z</time>
      </trkpt>
      <trkpt lat="-37.85523" lon="144.963492">
        <ele>3.541773</ele>
        <time>2024-03-24T09:15:51.000Z</time>
      </trkpt>
      <trkpt lat="-37.855234" lon="144.963479">
        <ele>3.543772</ele>
        <time>2024-03-24T09:15:51.000Z</time>
      </trkpt>
      <trkpt lat="-37.854828" lon="144.962783">
        <ele>3.787012</ele>
        <time>2024-03-24T09:15:59.000Z</time>
      </trkpt>
      <trkpt lat="-37.854454" lon="144.962106">
        <ele>4.067395</ele>
        <time>2024-03-24T09:16:06.000Z</time>
      </trkpt>
      <trkpt lat="-37.854027" lon="144.961324">
        <ele>4.421578</ele>
        <time>2024-03-24T09:16:14.000Z</time>
      </trkpt>
      <trkpt lat="-37.853575" lon="144.960365">
        <ele>4.752647</ele>
        <time>2024-03-24T09:16:24.000Z</time>
      </trkpt>
      <trkpt lat="-37.853548" lon="144.960329">
        <ele>4.755341</ele>
        <time>2024-03-24T09:16:24.000Z</time>
      </trkpt>
      <trkpt lat="-37.853549" lon="144.960332">
        <ele>4.755898</ele>
        <time>2024-03-24T09:16:24.000Z</time>
      </trkpt>
      <trkpt lat="-37.853236" lon="144.959675">
        <ele>4.825192</ele>
        <time>2024-03-24T09:16:31.000Z</time>
      </trkpt>
      <trkpt lat="-37.852984" lon="144.959148">
        <ele>4.878542</ele>
        <time>2024-03-24T09:16:36.000Z</time>
      </trkpt>
      <trkpt lat="-37.852988" lon="144.959157">
        <ele>4.87931</ele>
        <time>2024-03-24T09:16:36.000Z</time>
      </trkpt>
      <trkpt lat="-37.852956" lon="144.959096">
        <ele>4.884504</ele>
        <time>2024-03-24T09:16:37.000Z</time>
      </trkpt>
      <trkpt lat="-37.852795" lon="144.958747">
        <ele>4.920896</ele>
        <time>2024-03-24T09:16:41.000Z</time>
      </trkpt>
      <trkpt lat="-37.852592" lon="144.958367">
        <ele>4.880898</ele>
        <time>2024-03-24T09:16:45.000Z</time>
      </trkpt>
      <trkpt lat="-37.852585" lon="144.958334">
        <ele>4.875459</ele>
        <time>2024-03-24T09:16:45.000Z</time>
      </trkpt>
      <trkpt lat="-37.852567" lon="144.958282">
        <ele>4.869698</ele>
        <time>2024-03-24T09:16:45.000Z</time>
      </trkpt>
      <trkpt lat="-37.852424" lon="144.958014">
        <ele>4.828349</ele>
        <time>2024-03-24T09:16:48.000Z</time>
      </trkpt>
      <trkpt lat="-37.851898" lon="144.956933">
        <ele>4.671312</ele>
        <time>2024-03-24T09:16:59.000Z</time>
      </trkpt>
      <trkpt lat="-37.85191" lon="144.956938">
        <ele>4.671021</ele>
        <time>2024-03-24T09:16:59.000Z</time>
      </trkpt>
      <trkpt lat="-37.851886" lon="144.9569">
        <ele>4.66409</ele>
        <time>2024-03-24T09:16:59.000Z</time>
      </trkpt>
      <trkpt lat="-37.851619" lon="144.956355">
        <ele>4.732514</ele>
        <time>2024-03-24T09:17:05.000Z</time>
      </trkpt>
      <trkpt lat="-37.851265" lon="144.955614">
        <ele>4.901655</ele>
        <time>2024-03-24T09:17:13.000Z</time>
      </trkpt>
      <trkpt lat="-37.85082" lon="144.954681">
        <ele>5.083435</ele>
        <time>2024-03-24T09:17:23.000Z</time>
      </trkpt>
      <trkpt lat="-37.850547" lon="144.95415">
        <ele>5.062653</ele>
        <time>2024-03-24T09:17:29.000Z</time>
      </trkpt>
      <trkpt lat="-37.850532" lon="144.954132">
        <ele>5.062033</ele>
        <time>2024-03-24T09:17:29.000Z</time>
      </trkpt>
      <trkpt lat="-37.850523" lon="144.9541">
        <ele>5.061052</ele>
        <time>2024-03-24T09:17:29.000Z</time>
      </trkpt>
      <trkpt lat="-37.849795" lon="144.952613">
        <ele>4.937445</ele>
        <time>2024-03-24T09:17:44.000Z</time>
      </trkpt>
      <trkpt lat="-37.849661" lon="144.952318">
        <ele>4.843778</ele>
        <time>2024-03-24T09:17:47.000Z</time>
      </trkpt>
      <trkpt lat="-37.849439" lon="144.951857">
        <ele>4.701891</ele>
        <time>2024-03-24T09:17:52.000Z</time>
      </trkpt>
      <trkpt lat="-37.849275" lon="144.951546">
        <ele>4.602523</ele>
        <time>2024-03-24T09:17:55.000Z</time>
      </trkpt>
      <trkpt lat="-37.849209" lon="144.951408">
        <ele>4.563533</ele>
        <time>2024-03-24T09:17:56.000Z</time>
      </trkpt>
      <trkpt lat="-37.849144" lon="144.951277">
        <ele>4.521846</ele>
        <time>2024-03-24T09:17:57.000Z</time>
      </trkpt>
      <trkpt lat="-37.849039" lon="144.951329">
        <ele>4.485058</ele>
        <time>2024-03-24T09:17:58.000Z</time>
      </trkpt>
      <trkpt lat="-37.849131" lon="144.951504">
        <ele>4.42762</ele>
        <time>2024-03-24T09:18:00.000Z</time>
      </trkpt>
      <trkpt lat="-37.849188" lon="144.951631">
        <ele>4.44899</ele>
        <time>2024-03-24T09:18:01.000Z</time>
      </trkpt>
      <trkpt lat="-37.849816" lon="144.952917">
        <ele>5.077106</ele>
        <time>2024-03-24T09:18:14.000Z</time>
      </trkpt>
      <trkpt lat="-37.849817" lon="144.952915">
        <ele>5.081048</ele>
        <time>2024-03-24T09:18:14.000Z</time>
      </trkpt>
      <trkpt lat="-37.849817" lon="144.952932">
        <ele>5.085007</ele>
        <time>2024-03-24T09:18:14.000Z</time>
      </trkpt>
      <trkpt lat="-37.85072" lon="144.954767">
        <ele>5.57018</ele>
        <time>2024-03-24T09:18:33.000Z</time>
      </trkpt>
      <trkpt lat="-37.851126" lon="144.955606">
        <ele>5.700001</ele>
        <time>2024-03-24T09:18:42.000Z</time>
      </trkpt>
      <trkpt lat="-37.851519" lon="144.956436">
        <ele>5.801166</ele>
        <time>2024-03-24T09:18:50.000Z</time>
      </trkpt>
      <trkpt lat="-37.852338" lon="144.958093">
        <ele>6.050108</ele>
        <time>2024-03-24T09:19:07.000Z</time>
      </trkpt>
      <trkpt lat="-37.852665" lon="144.958779">
        <ele>6.179899</ele>
        <time>2024-03-24T09:19:14.000Z</time>
      </trkpt>
      <trkpt lat="-37.853133" lon="144.959744">
        <ele>6.24189</ele>
        <time>2024-03-24T09:19:24.000Z</time>
      </trkpt>
      <trkpt lat="-37.853804" lon="144.961111">
        <ele>6.116783</ele>
        <time>2024-03-24T09:19:38.000Z</time>
      </trkpt>
      <trkpt lat="-37.853819" lon="144.961137">
        <ele>6.114398</ele>
        <time>2024-03-24T09:19:38.000Z</time>
      </trkpt>
      <trkpt lat="-37.853811" lon="144.961148">
        <ele>6.113968</ele>
        <time>2024-03-24T09:19:38.000Z</time>
      </trkpt>
      <trkpt lat="-37.853936" lon="144.961407">
        <ele>6.078941</ele>
        <time>2024-03-24T09:19:41.000Z</time>
      </trkpt>
      <trkpt lat="-37.854295" lon="144.962114">
        <ele>5.951425</ele>
        <time>2024-03-24T09:19:48.000Z</time>
      </trkpt>
      <trkpt lat="-37.854674" lon="144.962913">
        <ele>5.810922</ele>
        <time>2024-03-24T09:19:56.000Z</time>
      </trkpt>
      <trkpt lat="-37.855568" lon="144.96469">
        <ele>6.10563</ele>
        <time>2024-03-24T09:20:14.000Z</time>
      </trkpt>
      <trkpt lat="-37.855962" lon="144.965412">
        <ele>6.500297</ele>
        <time>2024-03-24T09:20:22.000Z</time>
      </trkpt>
      <trkpt lat="-37.856519" lon="144.966497">
        <ele>7.540407</ele>
        <time>2024-03-24T09:20:33.000Z</time>
      </trkpt>
      <trkpt lat="-37.85783" lon="144.969021">
        <ele>10.572778</ele>
        <time>2024-03-24T09:21:00.000Z</time>
      </trkpt>
      <trkpt lat="-37.857871" lon="144.969067">
        <ele>10.603982</ele>
        <time>2024-03-24T09:21:01.000Z</time>
      </trkpt>
      <trkpt lat="-37.857926" lon="144.969194">
        <ele>10.676852</ele>
        <time>2024-03-24T09:21:02.000Z</time>
      </trkpt>
      <trkpt lat="-37.858074" lon="144.969462">
        <ele>10.824942</ele>
        <time>2024-03-24T09:21:05.000Z</time>
      </trkpt>
      <trkpt lat="-37.85819" lon="144.969711">
        <ele>10.965045</ele>
        <time>2024-03-24T09:21:08.000Z</time>
      </trkpt>
      <trkpt lat="-37.858248" lon="144.969817">
        <ele>11.025324</ele>
        <time>2024-03-24T09:21:09.000Z</time>
      </trkpt>
      <trkpt lat="-37.858272" lon="144.969859">
        <ele>11.043135</ele>
        <time>2024-03-24T09:21:09.000Z</time>
      </trkpt>
      <trkpt lat="-37.858276" lon="144.969872">
        <ele>11.048702</ele>
        <time>2024-03-24T09:21:09.000Z</time>
      </trkpt>
      <trkpt lat="-37.858345" lon="144.969982">
        <ele>11.113485</ele>
        <time>2024-03-24T09:21:10.000Z</time>
      </trkpt>
      <trkpt lat="-37.858578" lon="144.970306">
        <ele>11.321765</ele>
        <time>2024-03-24T09:21:14.000Z</time>
      </trkpt>
      <trkpt lat="-37.858617" lon="144.970327">
        <ele>11.348388</ele>
        <time>2024-03-24T09:21:14.000Z</time>
      </trkpt>
      <trkpt lat="-37.858618" lon="144.970346">
        <ele>11.351746</ele>
        <time>2024-03-24T09:21:14.000Z</time>
      </trkpt>
      <trkpt lat="-37.858628" lon="144.97034">
        <ele>11.359072</ele>
        <time>2024-03-24T09:21:14.000Z</time>
      </trkpt>
      <trkpt lat="-37.859662" lon="144.971377">
        <ele>11.791738</ele>
        <time>2024-03-24T09:21:29.000Z</time>
      </trkpt>
      <trkpt lat="-37.860289" lon="144.971993">
        <ele>11.96744</ele>
        <time>2024-03-24T09:21:38.000Z</time>
      </trkpt>
      <trkpt lat="-37.861022" lon="144.972623">
        <ele>12.212016</ele>
        <time>2024-03-24T09:21:48.000Z</time>
      </trkpt>
      <trkpt lat="-37.861333" lon="144.972738">
        <ele>12.304009</ele>
        <time>2024-03-24T09:21:52.000Z</time>
      </trkpt>
      <trkpt lat="-37.861445" lon="144.972791">
        <ele>12.336672</ele>
        <time>2024-03-24T09:21:53.000Z</time>
      </trkpt>
      <trkpt lat="-37.86157" lon="144.9728">
        <ele>12.369921</ele>
        <time>2024-03-24T09:21:54.000Z</time>
      </trkpt>
      <trkpt lat="-37.861956" lon="144.972836">
        <ele>12.482974</ele>
        <time>2024-03-24T09:21:58.000Z</time>
      </trkpt>
      <trkpt lat="-37.862271" lon="144.972765">
        <ele>12.387193</ele>
        <time>2024-03-24T09:22:02.000Z</time>
      </trkpt>
      <trkpt lat="-37.862663" lon="144.972504">
        <ele>12.247582</ele>
        <time>2024-03-24T09:22:07.000Z</time>
      </trkpt>
      <trkpt lat="-37.862878" lon="144.972344">
        <ele>12.166245</ele>
        <time>2024-03-24T09:22:10.000Z</time>
      </trkpt>
      <trkpt lat="-37.863132" lon="144.972276">
        <ele>12.081372</ele>
        <time>2024-03-24T09:22:13.000Z</time>
      </trkpt>
      <trkpt lat="-37.863824" lon="144.972164">
        <ele>11.744977</ele>
        <time>2024-03-24T09:22:21.000Z</time>
      </trkpt>
      <trkpt lat="-37.864273" lon="144.972206">
        <ele>11.279795</ele>
        <time>2024-03-24T09:22:26.000Z</time>
      </trkpt>
      <trkpt lat="-37.865014" lon="144.972688">
        <ele>10.415462</ele>
        <time>2024-03-24T09:22:35.000Z</time>
      </trkpt>
      <trkpt lat="-37.86525" lon="144.972927">
        <ele>10.104423</ele>
        <time>2024-03-24T09:22:38.000Z</time>
      </trkpt>
      <trkpt lat="-37.86576" lon="144.973651">
        <ele>9.455134</ele>
        <time>2024-03-24T09:22:47.000Z</time>
      </trkpt>
      <trkpt lat="-37.865889" lon="144.973796">
        <ele>9.315154</ele>
        <time>2024-03-24T09:22:49.000Z</time>
      </trkpt>
      <trkpt lat="-37.86597" lon="144.973882">
        <ele>9.228534</ele>
        <time>2024-03-24T09:22:50.000Z</time>
      </trkpt>
      <trkpt lat="-37.866265" lon="144.974118">
        <ele>8.948464</ele>
        <time>2024-03-24T09:22:54.000Z</time>
      </trkpt>
      <trkpt lat="-37.866353" lon="144.974167">
        <ele>8.871656</ele>
        <time>2024-03-24T09:22:55.000Z</time>
      </trkpt>
      <trkpt lat="-37.866449" lon="144.974233">
        <ele>8.780004</ele>
        <time>2024-03-24T09:22:56.000Z</time>
      </trkpt>
      <trkpt lat="-37.866688" lon="144.974351">
        <ele>8.568777</ele>
        <time>2024-03-24T09:22:59.000Z</time>
      </trkpt>
      <trkpt lat="-37.866965" lon="144.974489">
        <ele>8.482172</ele>
        <time>2024-03-24T09:23:02.000Z</time>
      </trkpt>
      <trkpt lat="-37.867222" lon="144.974607">
        <ele>8.413983</ele>
        <time>2024-03-24T09:23:05.000Z</time>
      </trkpt>
      <trkpt lat="-37.867691" lon="144.974909">
        <ele>8.279753</ele>
        <time>2024-03-24T09:23:11.000Z</time>
      </trkpt>
      <trkpt lat="-37.868213" lon="144.975263">
        <ele>8.128684</ele>
        <time>2024-03-24T09:23:18.000Z</time>
      </trkpt>
      <trkpt lat="-37.868338" lon="144.975329">
        <ele>8.098568</ele>
        <time>2024-03-24T09:23:20.000Z</time>
      </trkpt>
      <trkpt lat="-37.868634" lon="144.975546">
        <ele>8.087133</ele>
        <time>2024-03-24T09:23:24.000Z</time>
      </trkpt>
      <trkpt lat="-37.868719" lon="144.975583">
        <ele>8.084203</ele>
        <time>2024-03-24T09:23:25.000Z</time>
      </trkpt>
      <trkpt lat="-37.868787" lon="144.975637">
        <ele>8.081304</ele>
        <time>2024-03-24T09:23:26.000Z</time>
      </trkpt>
      <trkpt lat="-37.868874" lon="144.975703">
        <ele>8.078002</ele>
        <time>2024-03-24T09:23:27.000Z</time>
      </trkpt>
      <trkpt lat="-37.869161" lon="144.975872">
        <ele>8.067931</ele>
        <time>2024-03-24T09:23:31.000Z</time>
      </trkpt>
      <trkpt lat="-37.869329" lon="144.975976">
        <ele>8.06122</ele>
        <time>2024-03-24T09:23:33.000Z</time>
      </trkpt>
      <trkpt lat="-37.869419" lon="144.976027">
        <ele>8.058057</ele>
        <time>2024-03-24T09:23:34.000Z</time>
      </trkpt>
      <trkpt lat="-37.869597" lon="144.976113">
        <ele>8.051656</ele>
        <time>2024-03-24T09:23:36.000Z</time>
      </trkpt>
      <trkpt lat="-37.869741" lon="144.976156">
        <ele>8.046798</ele>
        <time>2024-03-24T09:23:38.000Z</time>
      </trkpt>
      <trkpt lat="-37.870565" lon="144.976273">
        <ele>7.790121</ele>
        <time>2024-03-24T09:23:47.000Z</time>
      </trkpt>
      <trkpt lat="-37.871206" lon="144.976372">
        <ele>7.519777</ele>
        <time>2024-03-24T09:23:54.000Z</time>
      </trkpt>
      <trkpt lat="-37.871225" lon="144.976362">
        <ele>7.505388</ele>
        <time>2024-03-24T09:23:54.000Z</time>
      </trkpt>
      <trkpt lat="-37.871231" lon="144.97637">
        <ele>7.504858</ele>
        <time>2024-03-24T09:23:54.000Z</time>
      </trkpt>
      <trkpt lat="-37.871885" lon="144.976452">
        <ele>7.222489</ele>
        <time>2024-03-24T09:24:01.000Z</time>
      </trkpt>
      <trkpt lat="-37.87201" lon="144.976467">
        <ele>7.169384</ele>
        <time>2024-03-24T09:24:02.000Z</time>
      </trkpt>
      <trkpt lat="-37.872097" lon="144.976476">
        <ele>7.124246</ele>
        <time>2024-03-24T09:24:03.000Z</time>
      </trkpt>
      <trkpt lat="-37.872978" lon="144.976594">
        <ele>6.718212</ele>
        <time>2024-03-24T09:24:13.000Z</time>
      </trkpt>
      <trkpt lat="-37.873011" lon="144.9766">
        <ele>6.703453</ele>
        <time>2024-03-24T09:24:13.000Z</time>
      </trkpt>
      <trkpt lat="-37.87406" lon="144.976748">
        <ele>6.35351</ele>
        <time>2024-03-24T09:24:25.000Z</time>
      </trkpt>
      <trkpt lat="-37.874494" lon="144.976803">
        <ele>6.266185</ele>
        <time>2024-03-24T09:24:30.000Z</time>
      </trkpt>
      <trkpt lat="-37.87486" lon="144.976857">
        <ele>6.195907</ele>
        <time>2024-03-24T09:24:34.000Z</time>
      </trkpt>
      <trkpt lat="-37.874943" lon="144.976873">
        <ele>6.176824</ele>
        <time>2024-03-24T09:24:35.000Z</time>
      </trkpt>
      <trkpt lat="-37.875208" lon="144.976912">
        <ele>6.126255</ele>
        <time>2024-03-24T09:24:38.000Z</time>
      </trkpt>
      <trkpt lat="-37.87528" lon="144.976912">
        <ele>6.112343</ele>
        <time>2024-03-24T09:24:39.000Z</time>
      </trkpt>
      <trkpt lat="-37.875352" lon="144.976922">
        <ele>6.099446</ele>
        <time>2024-03-24T09:24:40.000Z</time>
      </trkpt>
      <trkpt lat="-37.875425" lon="144.976949">
        <ele>6.09134</ele>
        <time>2024-03-24T09:24:41.000Z</time>
      </trkpt>
      <trkpt lat="-37.87625" lon="144.977056">
        <ele>5.999114</ele>
        <time>2024-03-24T09:24:50.000Z</time>
      </trkpt>
      <trkpt lat="-37.876272" lon="144.977056">
        <ele>5.996003</ele>
        <time>2024-03-24T09:24:50.000Z</time>
      </trkpt>
      <trkpt lat="-37.877102" lon="144.977173">
        <ele>5.903585</ele>
        <time>2024-03-24T09:24:59.000Z</time>
      </trkpt>
      <trkpt lat="-37.878698" lon="144.977384">
        <ele>5.422646</ele>
        <time>2024-03-24T09:25:17.000Z</time>
      </trkpt>
      <trkpt lat="-37.878901" lon="144.977416">
        <ele>5.36571</ele>
        <time>2024-03-24T09:25:19.000Z</time>
      </trkpt>
      <trkpt lat="-37.878951" lon="144.977421">
        <ele>5.352929</ele>
        <time>2024-03-24T09:25:20.000Z</time>
      </trkpt>
      <trkpt lat="-37.879772" lon="144.977527">
        <ele>5.175446</ele>
        <time>2024-03-24T09:25:29.000Z</time>
      </trkpt>
      <trkpt lat="-37.879897" lon="144.977567">
        <ele>5.147436</ele>
        <time>2024-03-24T09:25:30.000Z</time>
      </trkpt>
      <trkpt lat="-37.880066" lon="144.977589">
        <ele>5.112731</ele>
        <time>2024-03-24T09:25:32.000Z</time>
      </trkpt>
      <trkpt lat="-37.880234" lon="144.977611">
        <ele>5.078274</ele>
        <time>2024-03-24T09:25:34.000Z</time>
      </trkpt>
      <trkpt lat="-37.880637" lon="144.977669">
        <ele>4.990516</ele>
        <time>2024-03-24T09:25:39.000Z</time>
      </trkpt>
      <trkpt lat="-37.880713" lon="144.977675">
        <ele>4.994384</ele>
        <time>2024-03-24T09:25:40.000Z</time>
      </trkpt>
      <trkpt lat="-37.88106" lon="144.977725">
        <ele>5.30038</ele>
        <time>2024-03-24T09:25:44.000Z</time>
      </trkpt>
      <trkpt lat="-37.88124" lon="144.977752">
        <ele>5.47134</ele>
        <time>2024-03-24T09:25:46.000Z</time>
      </trkpt>
      <trkpt lat="-37.881332" lon="144.977775">
        <ele>5.551653</ele>
        <time>2024-03-24T09:25:47.000Z</time>
      </trkpt>
      <trkpt lat="-37.881686" lon="144.977886">
        <ele>5.889048</ele>
        <time>2024-03-24T09:25:51.000Z</time>
      </trkpt>
      <trkpt lat="-37.881833" lon="144.977952">
        <ele>6.027816</ele>
        <time>2024-03-24T09:25:53.000Z</time>
      </trkpt>
      <trkpt lat="-37.881885" lon="144.977979">
        <ele>6.092657</ele>
        <time>2024-03-24T09:25:54.000Z</time>
      </trkpt>
      <trkpt lat="-37.881999" lon="144.978037">
        <ele>6.19801</ele>
        <time>2024-03-24T09:25:55.000Z</time>
      </trkpt>
      <trkpt lat="-37.882218" lon="144.978149">
        <ele>6.408209</ele>
        <time>2024-03-24T09:25:58.000Z</time>
      </trkpt>
      <trkpt lat="-37.882214" lon="144.978159">
        <ele>6.412137</ele>
        <time>2024-03-24T09:25:58.000Z</time>
      </trkpt>
      <trkpt lat="-37.882217" lon="144.978157">
        <ele>6.416074</ele>
        <time>2024-03-24T09:25:58.000Z</time>
      </trkpt>
      <trkpt lat="-37.882286" lon="144.978195">
        <ele>6.484</ele>
        <time>2024-03-24T09:25:59.000Z</time>
      </trkpt>
      <trkpt lat="-37.882442" lon="144.97829">
        <ele>6.632031</ele>
        <time>2024-03-24T09:26:01.000Z</time>
      </trkpt>
      <trkpt lat="-37.882996" lon="144.978713">
        <ele>6.861405</ele>
        <time>2024-03-24T09:26:08.000Z</time>
      </trkpt>
      <trkpt lat="-37.883073" lon="144.97876">
        <ele>6.889594</ele>
        <time>2024-03-24T09:26:09.000Z</time>
      </trkpt>
      <trkpt lat="-37.883271" lon="144.97892">
        <ele>6.975824</ele>
        <time>2024-03-24T09:26:12.000Z</time>
      </trkpt>
      <trkpt lat="-37.883419" lon="144.978993">
        <ele>7.029188</ele>
        <time>2024-03-24T09:26:14.000Z</time>
      </trkpt>
      <trkpt lat="-37.883917" lon="144.97939">
        <ele>7.243013</ele>
        <time>2024-03-24T09:26:21.000Z</time>
      </trkpt>
      <trkpt lat="-37.884476" lon="144.979934">
        <ele>7.214381</ele>
        <time>2024-03-24T09:26:29.000Z</time>
      </trkpt>
      <trkpt lat="-37.88482" lon="144.980285">
        <ele>7.181836</ele>
        <time>2024-03-24T09:26:34.000Z</time>
      </trkpt>
      <trkpt lat="-37.885337" lon="144.981059">
        <ele>7.153058</ele>
        <time>2024-03-24T09:26:43.000Z</time>
      </trkpt>
      <trkpt lat="-37.88547" lon="144.981306">
        <ele>7.218375</ele>
        <time>2024-03-24T09:26:46.000Z</time>
      </trkpt>
      <trkpt lat="-37.88577" lon="144.981783">
        <ele>7.35247</ele>
        <time>2024-03-24T09:26:51.000Z</time>
      </trkpt>
      <trkpt lat="-37.885996" lon="144.982159">
        <ele>7.457665</ele>
        <time>2024-03-24T09:26:55.000Z</time>
      </trkpt>
      <trkpt lat="-37.886039" lon="144.982228">
        <ele>7.478547</ele>
        <time>2024-03-24T09:26:56.000Z</time>
      </trkpt>
      <trkpt lat="-37.886311" lon="144.982681">
        <ele>7.606569</ele>
        <time>2024-03-24T09:27:01.000Z</time>
      </trkpt>
      <trkpt lat="-37.88639" lon="144.982827">
        <ele>7.617886</ele>
        <time>2024-03-24T09:27:03.000Z</time>
      </trkpt>
      <trkpt lat="-37.886581" lon="144.983152">
        <ele>7.466841</ele>
        <time>2024-03-24T09:27:07.000Z</time>
      </trkpt>
      <trkpt lat="-37.886873" lon="144.983619">
        <ele>7.24728</ele>
        <time>2024-03-24T09:27:12.000Z</time>
      </trkpt>
      <trkpt lat="-37.887029" lon="144.983893">
        <ele>7.119857</ele>
        <time>2024-03-24T09:27:15.000Z</time>
      </trkpt>
      <trkpt lat="-37.887139" lon="144.984044">
        <ele>7.046372</ele>
        <time>2024-03-24T09:27:17.000Z</time>
      </trkpt>
      <trkpt lat="-37.887173" lon="144.98412">
        <ele>7.011382</ele>
        <time>2024-03-24T09:27:18.000Z</time>
      </trkpt>
      <trkpt lat="-37.887255" lon="144.984234">
        <ele>6.958891</ele>
        <time>2024-03-24T09:27:19.000Z</time>
      </trkpt>
      <trkpt lat="-37.887403" lon="144.984476">
        <ele>6.840806</ele>
        <time>2024-03-24T09:27:22.000Z</time>
      </trkpt>
      <trkpt lat="-37.887428" lon="144.984504">
        <ele>6.826226</ele>
        <time>2024-03-24T09:27:22.000Z</time>
      </trkpt>
      <trkpt lat="-37.887452" lon="144.984561">
        <ele>6.804071</ele>
        <time>2024-03-24T09:27:23.000Z</time>
      </trkpt>
      <trkpt lat="-37.887521" lon="144.984677">
        <ele>6.746497</ele>
        <time>2024-03-24T09:27:24.000Z</time>
      </trkpt>
      <trkpt lat="-37.887555" lon="144.984744">
        <ele>6.71601</ele>
        <time>2024-03-24T09:27:25.000Z</time>
      </trkpt>
      <trkpt lat="-37.887706" lon="144.984967">
        <ele>6.607553</ele>
        <time>2024-03-24T09:27:28.000Z</time>
      </trkpt>
      <trkpt lat="-37.887987" lon="144.985428">
        <ele>6.386679</ele>
        <time>2024-03-24T09:27:33.000Z</time>
      </trkpt>
      <trkpt lat="-37.888109" lon="144.985653">
        <ele>6.278497</ele>
        <time>2024-03-24T09:27:35.000Z</time>
      </trkpt>
      <trkpt lat="-37.888124" lon="144.98565">
        <ele>6.277596</ele>
        <time>2024-03-24T09:27:35.000Z</time>
      </trkpt>
      <trkpt lat="-37.888128" lon="144.985697">
        <ele>6.261446</ele>
        <time>2024-03-24T09:27:35.000Z</time>
      </trkpt>
      <trkpt lat="-37.888133" lon="144.985683">
        <ele>6.260225</ele>
        <time>2024-03-24T09:27:35.000Z</time>
      </trkpt>
      <trkpt lat="-37.888258" lon="144.985879">
        <ele>6.16876</ele>
        <time>2024-03-24T09:27:37.000Z</time>
      </trkpt>
      <trkpt lat="-37.888528" lon="144.986338">
        <ele>5.951496</ele>
        <time>2024-03-24T09:27:42.000Z</time>
      </trkpt>
      <trkpt lat="-37.888796" lon="144.986804">
        <ele>6.147404</ele>
        <time>2024-03-24T09:27:47.000Z</time>
      </trkpt>
      <trkpt lat="-37.88884" lon="144.986864">
        <ele>6.179717</ele>
        <time>2024-03-24T09:27:48.000Z</time>
      </trkpt>
      <trkpt lat="-37.889015" lon="144.98716">
        <ele>6.345473</ele>
        <time>2024-03-24T09:27:51.000Z</time>
      </trkpt>
      <trkpt lat="-37.889075" lon="144.987255">
        <ele>6.399216</ele>
        <time>2024-03-24T09:27:52.000Z</time>
      </trkpt>
      <trkpt lat="-37.889368" lon="144.987723">
        <ele>6.66154</ele>
        <time>2024-03-24T09:27:57.000Z</time>
      </trkpt>
      <trkpt lat="-37.890314" lon="144.989301">
        <ele>7.86681</ele>
        <time>2024-03-24T09:28:14.000Z</time>
      </trkpt>
      <trkpt lat="-37.890853" lon="144.990204">
        <ele>8.421003</ele>
        <time>2024-03-24T09:28:24.000Z</time>
      </trkpt>
      <trkpt lat="-37.891049" lon="144.990514">
        <ele>8.324196</ele>
        <time>2024-03-24T09:28:27.000Z</time>
      </trkpt>
      <trkpt lat="-37.890857" lon="144.990195">
        <ele>8.227388</ele>
        <time>2024-03-24T09:28:31.000Z</time>
      </trkpt>
      <trkpt lat="-37.890324" lon="144.98931">
        <ele>7.948568</ele>
        <time>2024-03-24T09:28:41.000Z</time>
      </trkpt>
      <trkpt lat="-37.889362" lon="144.987708">
        <ele>6.52724</ele>
        <time>2024-03-24T09:28:59.000Z</time>
      </trkpt>
      <trkpt lat="-37.889068" lon="144.987258">
        <ele>6.213683</ele>
        <time>2024-03-24T09:29:04.000Z</time>
      </trkpt>
      <trkpt lat="-37.88901" lon="144.987162">
        <ele>6.209879</ele>
        <time>2024-03-24T09:29:05.000Z</time>
      </trkpt>
      <trkpt lat="-37.888843" lon="144.98686">
        <ele>6.198118</ele>
        <time>2024-03-24T09:29:08.000Z</time>
      </trkpt>
      <trkpt lat="-37.888797" lon="144.986807">
        <ele>6.195826</ele>
        <time>2024-03-24T09:29:09.000Z</time>
      </trkpt>
      <trkpt lat="-37.888534" lon="144.986329">
        <ele>6.177188</ele>
        <time>2024-03-24T09:29:14.000Z</time>
      </trkpt>
      <trkpt lat="-37.88825" lon="144.98588">
        <ele>6.159073</ele>
        <time>2024-03-24T09:29:19.000Z</time>
      </trkpt>
      <trkpt lat="-37.888143" lon="144.985683">
        <ele>6.151453</ele>
        <time>2024-03-24T09:29:21.000Z</time>
      </trkpt>
      <trkpt lat="-37.88813" lon="144.985691">
        <ele>6.15134</ele>
        <time>2024-03-24T09:29:21.000Z</time>
      </trkpt>
      <trkpt lat="-37.888122" lon="144.98565">
        <ele>6.150005</ele>
        <time>2024-03-24T09:29:21.000Z</time>
      </trkpt>
      <trkpt lat="-37.888118" lon="144.985661">
        <ele>6.14993</ele>
        <time>2024-03-24T09:29:21.000Z</time>
      </trkpt>
      <trkpt lat="-37.887984" lon="144.985433">
        <ele>6.248143</ele>
        <time>2024-03-24T09:29:23.000Z</time>
      </trkpt>
      <trkpt lat="-37.887701" lon="144.984967">
        <ele>6.56241</ele>
        <time>2024-03-24T09:29:28.000Z</time>
      </trkpt>
      <trkpt lat="-37.887564" lon="144.984748">
        <ele>6.716746</ele>
        <time>2024-03-24T09:29:30.000Z</time>
      </trkpt>
      <trkpt lat="-37.887528" lon="144.984681">
        <ele>6.760122</ele>
        <time>2024-03-24T09:29:31.000Z</time>
      </trkpt>
      <trkpt lat="-37.887444" lon="144.984551">
        <ele>6.842614</ele>
        <time>2024-03-24T09:29:32.000Z</time>
      </trkpt>
      <trkpt lat="-37.887423" lon="144.98452">
        <ele>6.874927</ele>
        <time>2024-03-24T09:29:32.000Z</time>
      </trkpt>
      <trkpt lat="-37.887401" lon="144.984475">
        <ele>6.896176</ele>
        <time>2024-03-24T09:29:32.000Z</time>
      </trkpt>
      <trkpt lat="-37.887244" lon="144.984223">
        <ele>7.068371</ele>
        <time>2024-03-24T09:29:35.000Z</time>
      </trkpt>
      <trkpt lat="-37.887175" lon="144.984124">
        <ele>7.144922</ele>
        <time>2024-03-24T09:29:36.000Z</time>
      </trkpt>
      <trkpt lat="-37.887124" lon="144.984036">
        <ele>7.195936</ele>
        <time>2024-03-24T09:29:37.000Z</time>
      </trkpt>
      <trkpt lat="-37.887033" lon="144.983893">
        <ele>7.303097</ele>
        <time>2024-03-24T09:29:39.000Z</time>
      </trkpt>
      <trkpt lat="-37.886868" lon="144.98362">
        <ele>7.385179</ele>
        <time>2024-03-24T09:29:42.000Z</time>
      </trkpt>
      <trkpt lat="-37.886592" lon="144.983138">
        <ele>7.396917</ele>
        <time>2024-03-24T09:29:47.000Z</time>
      </trkpt>
      <trkpt lat="-37.886403" lon="144.982828">
        <ele>7.40498</ele>
        <time>2024-03-24T09:29:50.000Z</time>
      </trkpt>
      <trkpt lat="-37.886304" lon="144.982688">
        <ele>7.408418</ele>
        <time>2024-03-24T09:29:52.000Z</time>
      </trkpt>
      <trkpt lat="-37.88604" lon="144.982232">
        <ele>7.419876</ele>
        <time>2024-03-24T09:29:57.000Z</time>
      </trkpt>
      <trkpt lat="-37.885986" lon="144.982147">
        <ele>7.421744</ele>
        <time>2024-03-24T09:29:58.000Z</time>
      </trkpt>
      <trkpt lat="-37.885764" lon="144.981773">
        <ele>7.374654</ele>
        <time>2024-03-24T09:30:02.000Z</time>
      </trkpt>
      <trkpt lat="-37.885471" lon="144.981303">
        <ele>7.241763</ele>
        <time>2024-03-24T09:30:07.000Z</time>
      </trkpt>
      <trkpt lat="-37.885322" lon="144.981073">
        <ele>7.177042</ele>
        <time>2024-03-24T09:30:10.000Z</time>
      </trkpt>
      <trkpt lat="-37.884817" lon="144.980286">
        <ele>6.954764</ele>
        <time>2024-03-24T09:30:19.000Z</time>
      </trkpt>
      <trkpt lat="-37.884806" lon="144.980178">
        <ele>6.929295</ele>
        <time>2024-03-24T09:30:20.000Z</time>
      </trkpt>
      <trkpt lat="-37.88465" lon="144.979981">
        <ele>6.94764</ele>
        <time>2024-03-24T09:30:22.000Z</time>
      </trkpt>
      <trkpt lat="-37.884569" lon="144.979848">
        <ele>6.961281</ele>
        <time>2024-03-24T09:30:23.000Z</time>
      </trkpt>
      <trkpt lat="-37.884012" lon="144.979311">
        <ele>7.037695</ele>
        <time>2024-03-24T09:30:31.000Z</time>
      </trkpt>
      <trkpt lat="-37.883142" lon="144.97862">
        <ele>6.966228</ele>
        <time>2024-03-24T09:30:42.000Z</time>
      </trkpt>
      <trkpt lat="-37.883125" lon="144.978614">
        <ele>6.947474</ele>
        <time>2024-03-24T09:30:42.000Z</time>
      </trkpt>
      <trkpt lat="-37.882916" lon="144.978455">
        <ele>6.798319</ele>
        <time>2024-03-24T09:30:45.000Z</time>
      </trkpt>
      <trkpt lat="-37.882913" lon="144.978459">
        <ele>6.796966</ele>
        <time>2024-03-24T09:30:45.000Z</time>
      </trkpt>
      <trkpt lat="-37.882586" lon="144.978212">
        <ele>6.553972</ele>
        <time>2024-03-24T09:30:49.000Z</time>
      </trkpt>
      <trkpt lat="-37.882322" lon="144.978037">
        <ele>6.362773</ele>
        <time>2024-03-24T09:30:52.000Z</time>
      </trkpt>
      <trkpt lat="-37.882044" lon="144.977876">
        <ele>6.166894</ele>
        <time>2024-03-24T09:30:55.000Z</time>
      </trkpt>
      <trkpt lat="-37.881924" lon="144.977813">
        <ele>6.090055</ele>
        <time>2024-03-24T09:30:56.000Z</time>
      </trkpt>
      <trkpt lat="-37.881881" lon="144.977801">
        <ele>6.060649</ele>
        <time>2024-03-24T09:30:56.000Z</time>
      </trkpt>
      <trkpt lat="-37.881802" lon="144.977771">
        <ele>6.011676</ele>
        <time>2024-03-24T09:30:57.000Z</time>
      </trkpt>
      <trkpt lat="-37.881771" lon="144.977754">
        <ele>5.984051</ele>
        <time>2024-03-24T09:30:57.000Z</time>
      </trkpt>
      <trkpt lat="-37.881217" lon="144.977564">
        <ele>6.008047</ele>
        <time>2024-03-24T09:31:03.000Z</time>
      </trkpt>
      <trkpt lat="-37.880737" lon="144.977518">
        <ele>6.02898</ele>
        <time>2024-03-24T09:31:08.000Z</time>
      </trkpt>
      <trkpt lat="-37.880819" lon="144.977194">
        <ele>6.040263</ele>
        <time>2024-03-24T09:31:11.000Z</time>
      </trkpt>
      <trkpt lat="-37.881169" lon="144.976974">
        <ele>6.056877</ele>
        <time>2024-03-24T09:31:15.000Z</time>
      </trkpt>
      <trkpt lat="-37.881464" lon="144.976893">
        <ele>6.152451</ele>
        <time>2024-03-24T09:31:18.000Z</time>
      </trkpt>
      <trkpt lat="-37.881768" lon="144.976927">
        <ele>6.295579</ele>
        <time>2024-03-24T09:31:21.000Z</time>
      </trkpt>
      <trkpt lat="-37.882086" lon="144.977068">
        <ele>6.445034</ele>
        <time>2024-03-24T09:31:25.000Z</time>
      </trkpt>
      <trkpt lat="-37.882702" lon="144.977809">
        <ele>6.844284</ele>
        <time>2024-03-24T09:31:34.000Z</time>
      </trkpt>
      <trkpt lat="-37.883191" lon="144.978159">
        <ele>6.892469</ele>
        <time>2024-03-24T09:31:40.000Z</time>
      </trkpt>
      <trkpt lat="-37.883265" lon="144.978194">
        <ele>6.89348</ele>
        <time>2024-03-24T09:31:41.000Z</time>
      </trkpt>
      <trkpt lat="-37.883744" lon="144.978479">
        <ele>6.899271</ele>
        <time>2024-03-24T09:31:47.000Z</time>
      </trkpt>
      <trkpt lat="-37.883263" lon="144.978198">
        <ele>6.905047</ele>
        <time>2024-03-24T09:31:53.000Z</time>
      </trkpt>
      <trkpt lat="-37.883178" lon="144.97815">
        <ele>6.906052</ele>
        <time>2024-03-24T09:31:54.000Z</time>
      </trkpt>
      <trkpt lat="-37.882708" lon="144.977818">
        <ele>6.725898</ele>
        <time>2024-03-24T09:32:00.000Z</time>
      </trkpt>
      <trkpt lat="-37.882087" lon="144.977061">
        <ele>6.344132</ele>
        <time>2024-03-24T09:32:10.000Z</time>
      </trkpt>
      <trkpt lat="-37.881774" lon="144.976925">
        <ele>6.201235</ele>
        <time>2024-03-24T09:32:14.000Z</time>
      </trkpt>
      <trkpt lat="-37.881458" lon="144.976903">
        <ele>6.046553</ele>
        <time>2024-03-24T09:32:18.000Z</time>
      </trkpt>
      <trkpt lat="-37.881181" lon="144.976974">
        <ele>5.873742</ele>
        <time>2024-03-24T09:32:21.000Z</time>
      </trkpt>
      <trkpt lat="-37.880832" lon="144.977203">
        <ele>5.645384</ele>
        <time>2024-03-24T09:32:25.000Z</time>
      </trkpt>
      <trkpt lat="-37.880684" lon="144.977287">
        <ele>5.551945</ele>
        <time>2024-03-24T09:32:27.000Z</time>
      </trkpt>
      <trkpt lat="-37.880652" lon="144.9775">
        <ele>5.452318</ele>
        <time>2024-03-24T09:32:29.000Z</time>
      </trkpt>
      <trkpt lat="-37.880454" lon="144.977486">
        <ele>5.336683</ele>
        <time>2024-03-24T09:32:31.000Z</time>
      </trkpt>
      <trkpt lat="-37.880446" lon="144.977478">
        <ele>5.330784</ele>
        <time>2024-03-24T09:32:31.000Z</time>
      </trkpt>
      <trkpt lat="-37.880444" lon="144.977489">
        <ele>5.328425</ele>
        <time>2024-03-24T09:32:31.000Z</time>
      </trkpt>
      <trkpt lat="-37.880273" lon="144.977463">
        <ele>5.224576</ele>
        <time>2024-03-24T09:32:33.000Z</time>
      </trkpt>
      <trkpt lat="-37.879054" lon="144.977307">
        <ele>5.268497</ele>
        <time>2024-03-24T09:32:47.000Z</time>
      </trkpt>
      <trkpt lat="-37.87895" lon="144.97729">
        <ele>5.289478</ele>
        <time>2024-03-24T09:32:48.000Z</time>
      </trkpt>
      <trkpt lat="-37.878897" lon="144.97729">
        <ele>5.300883</ele>
        <time>2024-03-24T09:32:49.000Z</time>
      </trkpt>
      <trkpt lat="-37.878721" lon="144.977256">
        <ele>5.343054</ele>
        <time>2024-03-24T09:32:51.000Z</time>
      </trkpt>
      <trkpt lat="-37.87712" lon="144.977046">
        <ele>5.602357</ele>
        <time>2024-03-24T09:33:09.000Z</time>
      </trkpt>
      <trkpt lat="-37.876271" lon="144.976926">
        <ele>5.718711</ele>
        <time>2024-03-24T09:33:18.000Z</time>
      </trkpt>
      <trkpt lat="-37.876247" lon="144.976919">
        <ele>5.723695</ele>
        <time>2024-03-24T09:33:18.000Z</time>
      </trkpt>
      <trkpt lat="-37.87618" lon="144.976925">
        <ele>5.734341</ele>
        <time>2024-03-24T09:33:19.000Z</time>
      </trkpt>
      <trkpt lat="-37.875873" lon="144.976871">
        <ele>5.781263</ele>
        <time>2024-03-24T09:33:22.000Z</time>
      </trkpt>
      <trkpt lat="-37.875703" lon="144.976859">
        <ele>5.808556</ele>
        <time>2024-03-24T09:33:24.000Z</time>
      </trkpt>
      <trkpt lat="-37.875706" lon="144.976847">
        <ele>5.810169</ele>
        <time>2024-03-24T09:33:24.000Z</time>
      </trkpt>
      <trkpt lat="-37.875646" lon="144.976845">
        <ele>5.820295</ele>
        <time>2024-03-24T09:33:25.000Z</time>
      </trkpt>
      <trkpt lat="-37.875484" lon="144.976824">
        <ele>5.844872</ele>
        <time>2024-03-24T09:33:27.000Z</time>
      </trkpt>
      <trkpt lat="-37.875398" lon="144.976813">
        <ele>5.858365</ele>
        <time>2024-03-24T09:33:28.000Z</time>
      </trkpt>
      <trkpt lat="-37.875304" lon="144.976794">
        <ele>5.872642</ele>
        <time>2024-03-24T09:33:29.000Z</time>
      </trkpt>
      <trkpt lat="-37.875216" lon="144.976793">
        <ele>5.888428</ele>
        <time>2024-03-24T09:33:30.000Z</time>
      </trkpt>
      <trkpt lat="-37.87394" lon="144.976609">
        <ele>6.17587</ele>
        <time>2024-03-24T09:33:44.000Z</time>
      </trkpt>
      <trkpt lat="-37.873929" lon="144.976606">
        <ele>6.178126</ele>
        <time>2024-03-24T09:33:44.000Z</time>
      </trkpt>
      <trkpt lat="-37.873927" lon="144.976606">
        <ele>6.17927</ele>
        <time>2024-03-24T09:33:44.000Z</time>
      </trkpt>
      <trkpt lat="-37.873134" lon="144.976499">
        <ele>6.40577</ele>
        <time>2024-03-24T09:33:53.000Z</time>
      </trkpt>
      <trkpt lat="-37.873021" lon="144.976484">
        <ele>6.435739</ele>
        <time>2024-03-24T09:33:54.000Z</time>
      </trkpt>
      <trkpt lat="-37.872108" lon="144.97636">
        <ele>6.830922</ele>
        <time>2024-03-24T09:34:04.000Z</time>
      </trkpt>
      <trkpt lat="-37.872045" lon="144.976357">
        <ele>6.861737</ele>
        <time>2024-03-24T09:34:05.000Z</time>
      </trkpt>
      <trkpt lat="-37.871898" lon="144.976348">
        <ele>6.930418</ele>
        <time>2024-03-24T09:34:07.000Z</time>
      </trkpt>
      <trkpt lat="-37.871643" lon="144.976313">
        <ele>7.048977</ele>
        <time>2024-03-24T09:34:10.000Z</time>
      </trkpt>
      <trkpt lat="-37.871217" lon="144.976254">
        <ele>7.255654</ele>
        <time>2024-03-24T09:34:15.000Z</time>
      </trkpt>
      <trkpt lat="-37.871206" lon="144.976246">
        <ele>7.256607</ele>
        <time>2024-03-24T09:34:15.000Z</time>
      </trkpt>
      <trkpt lat="-37.870562" lon="144.976155">
        <ele>7.473329</ele>
        <time>2024-03-24T09:34:22.000Z</time>
      </trkpt>
      <trkpt lat="-37.869814" lon="144.976049">
        <ele>7.690576</ele>
        <time>2024-03-24T09:34:30.000Z</time>
      </trkpt>
      <trkpt lat="-37.86946" lon="144.975895">
        <ele>7.797137</ele>
        <time>2024-03-24T09:34:34.000Z</time>
      </trkpt>
      <trkpt lat="-37.869213" lon="144.975758">
        <ele>7.846416</ele>
        <time>2024-03-24T09:34:37.000Z</time>
      </trkpt>
      <trkpt lat="-37.868922" lon="144.975577">
        <ele>7.821218</ele>
        <time>2024-03-24T09:34:41.000Z</time>
      </trkpt>
      <trkpt lat="-37.868848" lon="144.975528">
        <ele>7.815457</ele>
        <time>2024-03-24T09:34:42.000Z</time>
      </trkpt>
      <trkpt lat="-37.868769" lon="144.975469">
        <ele>7.808811</ele>
        <time>2024-03-24T09:34:43.000Z</time>
      </trkpt>
      <trkpt lat="-37.868716" lon="144.975421">
        <ele>7.803865</ele>
        <time>2024-03-24T09:34:44.000Z</time>
      </trkpt>
      <trkpt lat="-37.867676" lon="144.974789">
        <ele>7.717189</ele>
        <time>2024-03-24T09:34:57.000Z</time>
      </trkpt>
      <trkpt lat="-37.867286" lon="144.97456">
        <ele>7.814249</ele>
        <time>2024-03-24T09:35:02.000Z</time>
      </trkpt>
      <trkpt lat="-37.867279" lon="144.974542">
        <ele>7.818087</ele>
        <time>2024-03-24T09:35:02.000Z</time>
      </trkpt>
      <trkpt lat="-37.867014" lon="144.974386">
        <ele>7.888609</ele>
        <time>2024-03-24T09:35:05.000Z</time>
      </trkpt>
      <trkpt lat="-37.866791" lon="144.97425">
        <ele>7.940854</ele>
        <time>2024-03-24T09:35:08.000Z</time>
      </trkpt>
      <trkpt lat="-37.866633" lon="144.974141">
        <ele>7.9849</ele>
        <time>2024-03-24T09:35:10.000Z</time>
      </trkpt>
      <trkpt lat="-37.866419" lon="144.97402">
        <ele>8.039202</ele>
        <time>2024-03-24T09:35:13.000Z</time>
      </trkpt>
      <trkpt lat="-37.866338" lon="144.973967">
        <ele>8.060072</ele>
        <time>2024-03-24T09:35:14.000Z</time>
      </trkpt>
      <trkpt lat="-37.866296" lon="144.973946">
        <ele>8.069098</ele>
        <time>2024-03-24T09:35:15.000Z</time>
      </trkpt>
      <trkpt lat="-37.865829" lon="144.973557">
        <ele>8.485889</ele>
        <time>2024-03-24T09:35:21.000Z</time>
      </trkpt>
      <trkpt lat="-37.865492" lon="144.973098">
        <ele>9.100282</ele>
        <time>2024-03-24T09:35:27.000Z</time>
      </trkpt>
      <trkpt lat="-37.865448" lon="144.973044">
        <ele>9.179054</ele>
        <time>2024-03-24T09:35:28.000Z</time>
      </trkpt>
      <trkpt lat="-37.865204" lon="144.972748">
        <ele>9.583711</ele>
        <time>2024-03-24T09:35:32.000Z</time>
      </trkpt>
      <trkpt lat="-37.865003" lon="144.972564">
        <ele>9.878826</ele>
        <time>2024-03-24T09:35:35.000Z</time>
      </trkpt>
      <trkpt lat="-37.864381" lon="144.972167">
        <ele>10.717215</ele>
        <time>2024-03-24T09:35:43.000Z</time>
      </trkpt>
      <trkpt lat="-37.864243" lon="144.972106">
        <ele>10.883552</ele>
        <time>2024-03-24T09:35:45.000Z</time>
      </trkpt>
      <trkpt lat="-37.863821" lon="144.972076">
        <ele>11.35663</ele>
        <time>2024-03-24T09:35:50.000Z</time>
      </trkpt>
      <trkpt lat="-37.862982" lon="144.972207">
        <ele>12.332512</ele>
        <time>2024-03-24T09:35:59.000Z</time>
      </trkpt>
      <trkpt lat="-37.862855" lon="144.972255">
        <ele>12.392219</ele>
        <time>2024-03-24T09:36:00.000Z</time>
      </trkpt>
      <trkpt lat="-37.862656" lon="144.97237">
        <ele>12.370144</ele>
        <time>2024-03-24T09:36:02.000Z</time>
      </trkpt>
      <trkpt lat="-37.862283" lon="144.972634">
        <ele>12.326503</ele>
        <time>2024-03-24T09:36:07.000Z</time>
      </trkpt>
      <trkpt lat="-37.862015" lon="144.972735">
        <ele>12.299044</ele>
        <time>2024-03-24T09:36:10.000Z</time>
      </trkpt>
      <trkpt lat="-37.861578" lon="144.972704">
        <ele>12.25345</ele>
        <time>2024-03-24T09:36:15.000Z</time>
      </trkpt>
      <trkpt lat="-37.861464" lon="144.972673">
        <ele>12.242404</ele>
        <time>2024-03-24T09:36:16.000Z</time>
      </trkpt>
      <trkpt lat="-37.861348" lon="144.97262">
        <ele>12.230433</ele>
        <time>2024-03-24T09:36:17.000Z</time>
      </trkpt>
      <trkpt lat="-37.860873" lon="144.97238">
        <ele>12.2108895127</ele>
        <time>2024-03-24T09:36:23.000Z</time>
      </trkpt>
      <trkpt lat="-37.860172" lon="144.97171">
        <ele>12.1773289285</ele>
        <time>2024-03-24T09:36:33.000Z</time>
      </trkpt>
      <trkpt lat="-37.860165" lon="144.97171">
        <ele>12.1770614178</ele>
        <time>2024-03-24T09:36:33.000Z</time>
      </trkpt>
    </trkseg>
  </trk>
</gpx>

<!--
Performance optimized by W3 Total Cache. Learn more: https://www.boldgrid.com/w3-total-cache/?utm_source=w3tc&utm_medium=footer_comment&utm_campaign=free_plugin

Page Caching using Disk: Enhanced{w3tc_pagecache_reject_reason} 

Served from: www.aquabike.world @ 2026-05-11 01:10:38 by W3 Total Cache
-->